Time,TemperatureF,DewpointF,PressureIn,WindDirection,WindDirectionDegrees,WindSpeedMPH,WindSpeedGustMPH,Humidity,HourlyPrecipIn,Conditions,Clouds,dailyrainin,SoftwareType,DateUTC
2013-11-11 00:00:00,44.7,26.2,30.35,SE,146,2.0,2.0,48,0.00,,,0.00,Wunderground v.1.15,2013-11-11 05:00:00,
2013-11-11 00:01:00,44.6,26.1,30.35,SE,146,2.0,2.0,48,0.00,,,0.00,Wunderground v.1.15,2013-11-11 05:01:00,
2013-11-11 00:02:00,44.4,25.9,30.35,SE,146,2.0,2.0,48,0.00,,,0.00,Wunderground v.1.15,2013-11-11 05:02:00,
2013-11-11 00:06:00,44.1,24.6,30.35,SE,146,2.0,2.0,46,0.00,,,0.00,Wunderground v.1.15,2013-11-11 05:06:00,
2013-11-11 00:07:00,44.1,24.6,30.35,SE,146,1.0,2.0,46,0.00,,,0.00,Wunderground v.1.15,2013-11-11 05:07:00,
2013-11-11 00:09:00,44.2,24.7,30.35,SE,146,1.0,2.0,46,0.00,,,0.00,Wunderground v.1.15,2013-11-11 05:09:00,
2013-11-11 00:10:00,44.2,26.7,30.35,WNW,285,1.0,2.0,50,0.00,,,0.00,Wunderground v.1.15,2013-11-11 05:10:00,
2013-11-11 00:11:00,44.0,26.5,30.34,NNW,337,1.0,2.0,50,0.00,,,0.00,Wunderground v.1.15,2013-11-11 05:11:00,
2013-11-11 00:13:00,43.8,25.4,30.34,NNW,337,1.0,2.0,48,0.00,,,0.00,Wunderground v.1.15,2013-11-11 05:13:00,
2013-11-11 00:15:00,43.7,25.3,30.34,NNW,337,1.0,2.0,48,0.00,,,0.00,Wunderground v.1.15,2013-11-11 05:15:00,
2013-11-11 00:16:00,43.7,24.8,30.34,NNW,337,1.0,2.0,47,0.00,,,0.00,Wunderground v.1.15,2013-11-11 05:16:00,
2013-11-11 00:18:00,43.8,24.9,30.34,NNW,337,1.0,4.0,47,0.00,,,0.00,Wunderground v.1.15,2013-11-11 05:18:00,
2013-11-11 00:19:00,43.8,24.9,30.34,NNW,337,1.0,4.0,47,0.00,,,0.00,Wunderground v.1.15,2013-11-11 05:19:00,
2013-11-11 00:22:00,43.9,24.9,30.34,NNW,340,1.0,4.0,47,0.00,,,0.00,Wunderground v.1.15,2013-11-11 05:22:00,
2013-11-11 00:24:00,44.2,24.7,30.34,NW,308,2.0,4.0,46,0.00,,,0.00,Wunderground v.1.15,2013-11-11 05:24:00,
2013-11-11 00:25:00,44.3,24.3,30.34,NW,305,2.0,6.0,45,0.00,,,0.00,Wunderground v.1.15,2013-11-11 05:25:00,
2013-11-11 00:26:00,44.5,25.0,30.34,NW,309,3.0,6.0,46,0.00,,,0.00,Wunderground v.1.15,2013-11-11 05:26:00,
2013-11-11 00:30:00,44.4,24.9,30.33,NNW,342,3.0,5.0,46,0.00,,,0.00,Wunderground v.1.15,2013-11-11 05:30:00,
2013-11-11 00:31:00,44.4,24.9,30.33,NW,317,3.0,7.0,46,0.00,,,0.00,Wunderground v.1.15,2013-11-11 05:31:00,
2013-11-11 00:32:00,44.4,24.9,30.33,NW,305,4.0,7.0,46,0.00,,,0.00,Wunderground v.1.15,2013-11-11 05:32:00,
2013-11-11 00:34:00,44.4,24.9,30.33,NW,306,4.0,7.0,46,0.00,,,0.00,Wunderground v.1.15,2013-11-11 05:34:00,
2013-11-11 00:37:00,44.0,25.5,30.33,NW,304,4.0,7.0,48,0.00,,,0.00,Wunderground v.1.15,2013-11-11 05:37:00,
2013-11-11 00:38:00,43.8,25.4,30.33,WNW,303,4.0,7.0,48,0.00,,,0.00,Wunderground v.1.15,2013-11-11 05:38:00,
2013-11-11 00:40:00,43.4,25.0,30.33,West,272,4.0,7.0,48,0.00,,,0.00,Wunderground v.1.15,2013-11-11 05:40:00,
2013-11-11 00:42:00,43.2,25.3,30.34,WNW,294,4.0,7.0,49,0.00,,,0.00,Wunderground v.1.15,2013-11-11 05:42:00,
2013-11-11 00:44:00,43.1,25.7,30.34,South,185,3.0,7.0,50,0.00,,,0.00,Wunderground v.1.15,2013-11-11 05:44:00,
2013-11-11 00:47:00,42.8,24.9,30.34,SSE,155,3.0,7.0,49,0.00,,,0.00,Wunderground v.1.15,2013-11-11 05:47:00,
2013-11-11 00:49:00,42.7,25.3,30.34,SSE,155,3.0,7.0,50,0.00,,,0.00,Wunderground v.1.15,2013-11-11 05:49:00,
2013-11-11 00:52:00,42.6,24.8,30.34,SSE,155,2.0,7.0,49,0.00,,,0.00,Wunderground v.1.15,2013-11-11 05:52:00,
2013-11-11 00:53:00,42.6,24.8,30.34,SSE,155,2.0,7.0,49,0.00,,,0.00,Wunderground v.1.15,2013-11-11 05:53:00,
2013-11-11 00:54:00,42.6,24.8,30.34,SSE,155,2.0,7.0,49,0.00,,,0.00,Wunderground v.1.15,2013-11-11 05:54:00,
2013-11-11 00:57:00,42.7,24.4,30.33,SSE,155,1.0,7.0,48,0.00,,,0.00,Wunderground v.1.15,2013-11-11 05:57:00,
2013-11-11 00:58:00,42.7,24.4,30.33,ESE,109,1.0,7.0,48,0.00,,,0.00,Wunderground v.1.15,2013-11-11 05:58:00,
2013-11-11 00:59:00,42.8,24.9,30.34,NE,42,1.0,7.0,49,0.00,,,0.00,Wunderground v.1.15,2013-11-11 05:59:00,
2013-11-11 01:01:00,42.8,24.9,30.34,ENE,76,1.0,7.0,49,0.00,,,0.00,Wunderground v.1.15,2013-11-11 06:01:00,
2013-11-11 01:02:00,42.7,25.3,30.34,ESE,102,2.0,7.0,50,0.00,,,0.00,Wunderground v.1.15,2013-11-11 06:02:00,
2013-11-11 01:05:00,42.0,25.6,30.34,ESE,103,2.0,7.0,52,0.00,,,0.00,Wunderground v.1.15,2013-11-11 06:05:00,
2013-11-11 01:07:00,41.7,24.9,30.34,ESE,118,2.0,7.0,51,0.00,,,0.00,Wunderground v.1.15,2013-11-11 06:07:00,
2013-11-11 01:08:00,41.6,25.7,30.34,ESE,118,2.0,7.0,53,0.00,,,0.00,Wunderground v.1.15,2013-11-11 06:08:00,
2013-11-11 01:09:00,41.5,25.2,30.34,ESE,118,2.0,7.0,52,0.00,,,0.00,Wunderground v.1.15,2013-11-11 06:09:00,
2013-11-11 01:10:00,41.3,25.0,30.34,ESE,118,2.0,2.0,52,0.00,,,0.00,Wunderground v.1.15,2013-11-11 06:10:00,
2013-11-11 01:13:00,41.1,25.7,30.34,ESE,118,1.0,7.0,54,0.00,,,0.00,Wunderground v.1.15,2013-11-11 06:13:00,
2013-11-11 01:14:00,41.1,24.3,30.34,ESE,118,1.0,7.0,51,0.00,,,0.00,Wunderground v.1.15,2013-11-11 06:14:00,
2013-11-11 01:17:00,41.3,25.0,30.34,SE,142,1.0,7.0,52,0.00,,,0.00,Wunderground v.1.15,2013-11-11 06:17:00,
2013-11-11 01:18:00,41.4,25.1,30.34,SE,142,1.0,7.0,52,0.00,,,0.00,Wunderground v.1.15,2013-11-11 06:18:00,
2013-11-11 01:21:00,41.6,24.8,30.34,SE,142,1.0,7.0,51,0.00,,,0.00,Wunderground v.1.15,2013-11-11 06:21:00,
2013-11-11 01:22:00,41.6,26.2,30.34,SE,142,1.0,7.0,54,0.00,,,0.00,Wunderground v.1.15,2013-11-11 06:22:00,
2013-11-11 01:23:00,41.6,25.3,30.34,SE,142,0.0,7.0,52,0.00,,,0.00,Wunderground v.1.15,2013-11-11 06:23:00,
2013-11-11 01:24:00,41.5,25.2,30.34,SE,142,0.0,7.0,52,0.00,,,0.00,Wunderground v.1.15,2013-11-11 06:24:00,
2013-11-11 01:26:00,41.4,25.1,30.34,SE,142,0.0,7.0,52,0.00,,,0.00,Wunderground v.1.15,2013-11-11 06:26:00,
2013-11-11 01:29:00,41.0,25.6,30.34,SE,142,1.0,7.0,54,0.00,,,0.00,Wunderground v.1.15,2013-11-11 06:29:00,
2013-11-11 01:30:00,40.9,25.1,30.34,SE,142,1.0,7.0,53,0.00,,,0.00,Wunderground v.1.15,2013-11-11 06:30:00,
2013-11-11 01:31:00,40.7,24.4,30.34,SE,142,1.0,7.0,52,0.00,,,0.00,Wunderground v.1.15,2013-11-11 06:31:00,
2013-11-11 01:34:00,40.7,24.4,30.34,SE,142,1.0,7.0,52,0.00,,,0.00,Wunderground v.1.15,2013-11-11 06:34:00,
2013-11-11 01:36:00,40.8,24.5,30.34,SE,142,1.0,7.0,52,0.00,,,0.00,Wunderground v.1.15,2013-11-11 06:36:00,
2013-11-11 01:37:00,40.8,24.1,30.34,SE,142,1.0,7.0,51,0.00,,,0.00,Wunderground v.1.15,2013-11-11 06:37:00,
2013-11-11 01:38:00,40.9,24.1,30.34,SE,142,1.0,7.0,51,0.00,,,0.00,Wunderground v.1.15,2013-11-11 06:38:00,
2013-11-11 01:39:00,40.9,24.6,30.34,SE,140,1.0,7.0,52,0.00,,,0.00,Wunderground v.1.15,2013-11-11 06:39:00,
2013-11-11 01:42:00,40.2,25.7,30.34,ESE,120,1.0,7.0,56,0.00,,,0.00,Wunderground v.1.15,2013-11-11 06:42:00,
2013-11-11 01:43:00,40.1,24.8,30.34,SE,124,2.0,7.0,54,0.00,,,0.00,Wunderground v.1.15,2013-11-11 06:43:00,
2013-11-11 01:44:00,40.0,25.1,30.34,SSE,148,2.0,7.0,55,0.00,,,0.00,Wunderground v.1.15,2013-11-11 06:44:00,
2013-11-11 01:48:00,39.9,25.0,30.34,ESE,105,3.0,7.0,55,0.00,,,0.00,Wunderground v.1.15,2013-11-11 06:48:00,
2013-11-11 01:50:00,40.2,24.4,30.34,East,101,3.0,3.0,53,0.00,,,0.00,Wunderground v.1.15,2013-11-11 06:50:00,
2013-11-11 01:51:00,40.4,24.6,30.34,East,101,3.0,7.0,53,0.00,,,0.00,Wunderground v.1.15,2013-11-11 06:51:00,
2013-11-11 01:53:00,40.7,24.9,30.34,ESE,107,3.0,7.0,53,0.00,,,0.00,Wunderground v.1.15,2013-11-11 06:53:00,
2013-11-11 01:54:00,40.8,25.0,30.34,ESE,107,3.0,7.0,53,0.00,,,0.00,Wunderground v.1.15,2013-11-11 06:54:00,
2013-11-11 01:56:00,41.0,24.7,30.34,SE,144,2.0,7.0,52,0.00,,,0.00,Wunderground v.1.15,2013-11-11 06:56:00,
2013-11-11 01:57:00,41.1,25.3,30.34,SE,144,2.0,7.0,53,0.00,,,0.00,Wunderground v.1.15,2013-11-11 06:57:00,
2013-11-11 01:58:00,41.1,25.7,30.34,SE,144,2.0,7.0,54,0.00,,,0.00,Wunderground v.1.15,2013-11-11 06:58:00,
2013-11-11 01:59:00,41.0,25.6,30.34,SE,144,2.0,7.0,54,0.00,,,0.00,Wunderground v.1.15,2013-11-11 06:59:00,
2013-11-11 02:01:00,40.9,25.1,30.34,SE,144,1.0,7.0,53,0.00,,,0.00,Wunderground v.1.15,2013-11-11 07:01:00,
2013-11-11 02:02:00,40.8,25.4,30.34,SE,142,1.0,7.0,54,0.00,,,0.00,Wunderground v.1.15,2013-11-11 07:02:00,
2013-11-11 02:03:00,40.7,24.9,30.34,SE,142,1.0,7.0,53,0.00,,,0.00,Wunderground v.1.15,2013-11-11 07:03:00,
2013-11-11 02:04:00,40.6,24.8,30.34,SE,142,1.0,7.0,53,0.00,,,0.00,Wunderground v.1.15,2013-11-11 07:04:00,
2013-11-11 02:05:00,40.5,24.7,30.34,SE,142,1.0,7.0,53,0.00,,,0.00,Wunderground v.1.15,2013-11-11 07:05:00,
2013-11-11 02:06:00,40.5,24.7,30.34,SE,142,1.0,7.0,53,0.00,,,0.00,Wunderground v.1.15,2013-11-11 07:06:00,
2013-11-11 02:08:00,40.4,24.6,30.33,SE,142,1.0,7.0,53,0.00,,,0.00,Wunderground v.1.15,2013-11-11 07:08:00,
2013-11-11 02:09:00,40.5,24.2,30.34,SE,142,1.0,7.0,52,0.00,,,0.00,Wunderground v.1.15,2013-11-11 07:09:00,
2013-11-11 02:10:00,40.5,24.7,30.34,SE,142,1.0,1.0,53,0.00,,,0.00,Wunderground v.1.15,2013-11-11 07:10:00,
2013-11-11 02:11:00,40.6,24.3,30.34,SE,142,1.0,7.0,52,0.00,,,0.00,Wunderground v.1.15,2013-11-11 07:11:00,
2013-11-11 02:15:00,40.3,25.4,30.34,WSW,240,1.0,7.0,55,0.00,,,0.00,Wunderground v.1.15,2013-11-11 07:15:00,
2013-11-11 02:16:00,40.2,24.4,30.33,WSW,240,1.0,7.0,53,0.00,,,0.00,Wunderground v.1.15,2013-11-11 07:16:00,
2013-11-11 02:17:00,40.2,24.9,30.34,WSW,240,1.0,7.0,54,0.00,,,0.00,Wunderground v.1.15,2013-11-11 07:17:00,
2013-11-11 02:18:00,40.1,25.6,30.34,WSW,240,1.0,7.0,56,0.00,,,0.00,Wunderground v.1.15,2013-11-11 07:18:00,
2013-11-11 02:19:00,40.0,25.6,30.34,SSW,193,1.0,7.0,56,0.00,,,0.00,Wunderground v.1.15,2013-11-11 07:19:00,
2013-11-11 02:22:00,39.5,25.5,30.34,SSW,193,1.0,7.0,57,0.00,,,0.00,Wunderground v.1.15,2013-11-11 07:22:00,
2013-11-11 02:24:00,39.2,25.2,30.34,SSW,193,1.0,7.0,57,0.00,,,0.00,Wunderground v.1.15,2013-11-11 07:24:00,
2013-11-11 02:25:00,39.1,24.3,30.34,SSW,193,0.0,7.0,55,0.00,,,0.00,Wunderground v.1.15,2013-11-11 07:25:00,
2013-11-11 02:27:00,39.0,24.6,30.34,SSW,193,0.0,7.0,56,0.00,,,0.00,Wunderground v.1.15,2013-11-11 07:27:00,
2013-11-11 02:29:00,39.1,24.3,30.34,SSW,193,0.0,7.0,55,0.00,,,0.00,Wunderground v.1.15,2013-11-11 07:29:00,
2013-11-11 02:30:00,39.2,24.8,30.34,SSW,193,0.0,7.0,56,0.00,,,0.00,Wunderground v.1.15,2013-11-11 07:30:00,
2013-11-11 02:34:00,38.8,25.7,30.34,SSW,193,0.0,7.0,59,0.00,,,0.00,Wunderground v.1.15,2013-11-11 07:34:00,
2013-11-11 02:35:00,38.7,25.2,30.34,SSW,193,0.0,7.0,58,0.00,,,0.00,Wunderground v.1.15,2013-11-11 07:35:00,
2013-11-11 02:37:00,38.5,24.6,30.34,SSW,193,0.0,7.0,57,0.00,,,0.00,Wunderground v.1.15,2013-11-11 07:37:00,
2013-11-11 02:40:00,38.4,24.9,30.34,SSW,193,0.0,7.0,58,0.00,,,0.00,Wunderground v.1.15,2013-11-11 07:40:00,
2013-11-11 02:41:00,38.4,24.5,30.34,SSW,193,0.0,7.0,57,0.00,,,0.00,Wunderground v.1.15,2013-11-11 07:41:00,
2013-11-11 02:43:00,38.4,24.1,30.34,SSW,193,1.0,7.0,56,0.00,,,0.00,Wunderground v.1.15,2013-11-11 07:43:00,
2013-11-11 02:48:00,38.3,24.8,30.34,SSE,157,1.0,7.0,58,0.00,,,0.00,Wunderground v.1.15,2013-11-11 07:48:00,
2013-11-11 02:49:00,38.3,24.4,30.34,SSE,157,1.0,7.0,57,0.00,,,0.00,Wunderground v.1.15,2013-11-11 07:49:00,
2013-11-11 02:52:00,38.4,24.5,30.34,SSE,157,1.0,7.0,57,0.00,,,0.00,Wunderground v.1.15,2013-11-11 07:52:00,
2013-11-11 02:53:00,38.4,24.9,30.34,SSE,157,1.0,7.0,58,0.00,,,0.00,Wunderground v.1.15,2013-11-11 07:53:00,
2013-11-11 02:56:00,38.2,25.1,30.34,SSE,157,1.0,7.0,59,0.00,,,0.00,Wunderground v.1.15,2013-11-11 07:56:00,
2013-11-11 02:58:00,37.9,25.2,30.34,SSE,157,1.0,7.0,60,0.00,,,0.00,Wunderground v.1.15,2013-11-11 07:58:00,
2013-11-11 02:59:00,37.7,25.5,30.34,SSE,157,1.0,7.0,61,0.00,,,0.00,Wunderground v.1.15,2013-11-11 07:59:00,
2013-11-11 03:00:00,37.5,24.5,30.34,SSE,157,1.0,7.0,59,0.00,,,0.00,Wunderground v.1.15,2013-11-11 08:00:00,
2013-11-11 03:03:00,37.7,25.1,30.34,SSE,157,1.0,7.0,60,0.00,,,0.00,Wunderground v.1.15,2013-11-11 08:03:00,
2013-11-11 03:04:00,37.7,25.5,30.34,SSE,157,1.0,7.0,61,0.00,,,0.00,Wunderground v.1.15,2013-11-11 08:04:00,
2013-11-11 03:05:00,37.7,25.1,30.34,SE,134,1.0,7.0,60,0.00,,,0.00,Wunderground v.1.15,2013-11-11 08:05:00,
2013-11-11 03:06:00,37.7,24.6,30.34,SE,134,1.0,7.0,59,0.00,,,0.00,Wunderground v.1.15,2013-11-11 08:06:00,
2013-11-11 03:08:00,37.8,24.3,30.34,SE,134,1.0,7.0,58,0.00,,,0.00,Wunderground v.1.15,2013-11-11 08:08:00,
2013-11-11 03:10:00,37.8,25.1,30.34,ESE,107,1.0,7.0,60,0.00,,,0.00,Wunderground v.1.15,2013-11-11 08:10:00,
2013-11-11 03:11:00,37.8,24.7,30.34,North,5,1.0,7.0,59,0.00,,,0.00,Wunderground v.1.15,2013-11-11 08:11:00,
2013-11-11 03:13:00,38.1,24.2,30.34,WNW,293,1.0,7.0,57,0.00,,,0.00,Wunderground v.1.15,2013-11-11 08:13:00,
2013-11-11 03:14:00,38.2,24.3,30.34,WNW,293,1.0,7.0,57,0.00,,,0.00,Wunderground v.1.15,2013-11-11 08:14:00,
2013-11-11 03:15:00,38.8,24.0,30.34,North,5,1.0,7.0,55,0.00,,,0.00,Wunderground v.1.15,2013-11-11 08:15:00,
2013-11-11 03:19:00,39.3,24.5,30.34,WNW,302,2.0,7.0,55,0.00,,,0.00,Wunderground v.1.15,2013-11-11 08:19:00,
2013-11-11 03:20:00,39.5,24.2,30.34,WNW,302,2.0,7.0,54,0.00,,,0.00,Wunderground v.1.15,2013-11-11 08:20:00,
2013-11-11 03:22:00,39.9,25.0,30.34,WNW,302,2.0,7.0,55,0.00,,,0.00,Wunderground v.1.15,2013-11-11 08:22:00,
2013-11-11 03:23:00,40.0,24.7,30.34,WNW,302,1.0,7.0,54,0.00,,,0.00,Wunderground v.1.15,2013-11-11 08:23:00,
2013-11-11 03:24:00,40.0,24.7,30.34,WNW,302,1.0,7.0,54,0.00,,,0.00,Wunderground v.1.15,2013-11-11 08:24:00,
2013-11-11 03:25:00,40.0,26.0,30.34,WSW,237,1.0,7.0,57,0.00,,,0.00,Wunderground v.1.15,2013-11-11 08:25:00,
2013-11-11 03:27:00,39.6,26.0,30.34,South,173,1.0,7.0,58,0.00,,,0.00,Wunderground v.1.15,2013-11-11 08:27:00,
2013-11-11 03:28:00,39.3,25.7,30.34,South,171,1.0,7.0,58,0.00,,,0.00,Wunderground v.1.15,2013-11-11 08:28:00,
2013-11-11 03:30:00,38.8,24.4,30.34,South,171,1.0,1.0,56,0.00,,,0.00,Wunderground v.1.15,2013-11-11 08:30:00,
2013-11-11 03:32:00,38.5,24.6,30.34,South,171,0.0,7.0,57,0.00,,,0.00,Wunderground v.1.15,2013-11-11 08:32:00,
2013-11-11 03:35:00,38.0,24.9,30.34,SSE,160,1.0,7.0,59,0.00,,,0.00,Wunderground v.1.15,2013-11-11 08:35:00,
2013-11-11 03:36:00,37.9,25.2,30.34,SSE,160,1.0,7.0,60,0.00,,,0.00,Wunderground v.1.15,2013-11-11 08:36:00,
2013-11-11 03:37:00,37.7,25.1,30.34,SSE,160,1.0,7.0,60,0.00,,,0.00,Wunderground v.1.15,2013-11-11 08:37:00,
2013-11-11 03:41:00,37.1,24.1,30.34,SSE,160,1.0,7.0,59,0.00,,,0.00,Wunderground v.1.15,2013-11-11 08:41:00,
2013-11-11 03:43:00,37.1,24.1,30.34,SSE,160,1.0,7.0,59,0.00,,,0.00,Wunderground v.1.15,2013-11-11 08:43:00,
2013-11-11 03:44:00,37.1,24.5,30.34,SSE,160,1.0,7.0,60,0.00,,,0.00,Wunderground v.1.15,2013-11-11 08:44:00,
2013-11-11 03:46:00,37.1,24.5,30.34,SSE,160,0.0,7.0,60,0.00,,,0.00,Wunderground v.1.15,2013-11-11 08:46:00,
2013-11-11 03:48:00,37.1,24.5,30.34,SSE,160,0.0,7.0,60,0.00,,,0.00,Wunderground v.1.15,2013-11-11 08:48:00,
2013-11-11 03:50:00,37.1,24.9,30.34,SSE,160,0.0,7.0,61,0.00,,,0.00,Wunderground v.1.15,2013-11-11 08:50:00,
2013-11-11 03:51:00,37.1,25.3,30.34,SSE,160,0.0,7.0,62,0.00,,,0.00,Wunderground v.1.15,2013-11-11 08:51:00,
2013-11-11 03:52:00,37.0,25.2,30.34,SSE,160,0.0,7.0,62,0.00,,,0.00,Wunderground v.1.15,2013-11-11 08:52:00,
2013-11-11 03:54:00,36.8,25.4,30.34,SSE,160,0.0,7.0,63,0.00,,,0.00,Wunderground v.1.15,2013-11-11 08:54:00,
2013-11-11 03:55:00,36.7,25.3,30.34,SSE,159,1.0,7.0,63,0.00,,,0.00,Wunderground v.1.15,2013-11-11 08:55:00,
2013-11-11 03:57:00,36.6,24.8,30.34,SSE,159,1.0,7.0,62,0.00,,,0.00,Wunderground v.1.15,2013-11-11 08:57:00,
2013-11-11 04:00:00,36.7,24.5,30.34,SSE,159,1.0,1.0,61,0.00,,,0.00,Wunderground v.1.15,2013-11-11 09:00:00,
2013-11-11 04:02:00,36.8,24.2,30.34,SSE,159,1.0,7.0,60,0.00,,,0.00,Wunderground v.1.15,2013-11-11 09:02:00,
2013-11-11 04:03:00,36.8,24.6,30.34,SE,134,1.0,7.0,61,0.00,,,0.00,Wunderground v.1.15,2013-11-11 09:03:00,
2013-11-11 04:06:00,36.6,25.2,30.34,SE,131,1.0,7.0,63,0.00,,,0.00,Wunderground v.1.15,2013-11-11 09:06:00,
2013-11-11 04:08:00,36.4,25.0,30.34,SE,131,1.0,7.0,63,0.00,,,0.00,Wunderground v.1.15,2013-11-11 09:08:00,
2013-11-11 04:09:00,36.2,24.8,30.34,SE,131,1.0,7.0,63,0.00,,,0.00,Wunderground v.1.15,2013-11-11 09:09:00,
2013-11-11 04:11:00,36.2,24.4,30.34,SE,131,1.0,7.0,62,0.00,,,0.00,Wunderground v.1.15,2013-11-11 09:11:00,
2013-11-11 04:13:00,36.1,24.7,30.34,SE,131,1.0,7.0,63,0.00,,,0.00,Wunderground v.1.15,2013-11-11 09:13:00,
2013-11-11 04:16:00,36.1,24.7,30.34,SE,138,1.0,7.0,63,0.00,,,0.00,Wunderground v.1.15,2013-11-11 09:16:00,
2013-11-11 04:17:00,36.1,24.7,30.34,SE,138,1.0,7.0,63,0.00,,,0.00,Wunderground v.1.15,2013-11-11 09:17:00,
2013-11-11 04:18:00,36.1,25.5,30.34,SE,126,1.0,7.0,65,0.00,,,0.00,Wunderground v.1.15,2013-11-11 09:18:00,
2013-11-11 04:19:00,36.1,25.8,30.34,ESE,117,1.0,7.0,66,0.00,,,0.00,Wunderground v.1.15,2013-11-11 09:19:00,
2013-11-11 04:22:00,35.7,25.1,30.34,ESE,115,1.0,7.0,65,0.00,,,0.00,Wunderground v.1.15,2013-11-11 09:22:00,
2013-11-11 04:23:00,35.6,25.0,30.34,ESE,115,2.0,7.0,65,0.00,,,0.00,Wunderground v.1.15,2013-11-11 09:23:00,
2013-11-11 04:24:00,35.5,25.3,30.34,ESE,115,2.0,7.0,66,0.00,,,0.00,Wunderground v.1.15,2013-11-11 09:24:00,
2013-11-11 04:27:00,35.3,25.1,30.34,ESE,115,1.0,7.0,66,0.00,,,0.00,Wunderground v.1.15,2013-11-11 09:27:00,
2013-11-11 04:28:00,35.2,25.3,30.34,ESE,115,1.0,7.0,67,0.00,,,0.00,Wunderground v.1.15,2013-11-11 09:28:00,
2013-11-11 04:29:00,35.2,25.3,30.34,ESE,115,1.0,7.0,67,0.00,,,0.00,Wunderground v.1.15,2013-11-11 09:29:00,
2013-11-11 04:30:00,35.1,25.6,30.34,ESE,115,1.0,1.0,68,0.00,,,0.00,Wunderground v.1.15,2013-11-11 09:30:00,
2013-11-11 04:31:00,35.0,25.1,30.34,ESE,115,1.0,7.0,67,0.00,,,0.00,Wunderground v.1.15,2013-11-11 09:31:00,
2013-11-11 04:33:00,35.0,24.8,30.34,ESE,115,0.0,7.0,66,0.00,,,0.00,Wunderground v.1.15,2013-11-11 09:33:00,
2013-11-11 04:39:00,35.0,25.5,30.35,ESE,115,0.0,7.0,68,0.00,,,0.00,Wunderground v.1.15,2013-11-11 09:39:00,
2013-11-11 04:40:00,35.0,25.5,30.35,ESE,115,1.0,7.0,68,0.00,,,0.00,Wunderground v.1.15,2013-11-11 09:40:00,
2013-11-11 04:41:00,34.9,25.4,30.35,ESE,115,1.0,7.0,68,0.00,,,0.00,Wunderground v.1.15,2013-11-11 09:41:00,
2013-11-11 04:42:00,34.8,25.3,30.35,ESE,115,1.0,7.0,68,0.00,,,0.00,Wunderground v.1.15,2013-11-11 09:42:00,
2013-11-11 04:44:00,34.8,25.3,30.35,ESE,115,1.0,7.0,68,0.00,,,0.00,Wunderground v.1.15,2013-11-11 09:44:00,
2013-11-11 04:47:00,34.7,24.5,30.35,ESE,115,1.0,7.0,66,0.00,,,0.00,Wunderground v.1.15,2013-11-11 09:47:00,
2013-11-11 04:48:00,34.7,24.9,30.35,ESE,115,1.0,7.0,67,0.00,,,0.00,Wunderground v.1.15,2013-11-11 09:48:00,
2013-11-11 04:49:00,34.7,24.9,30.35,ESE,115,1.0,7.0,67,0.00,,,0.00,Wunderground v.1.15,2013-11-11 09:49:00,
2013-11-11 04:52:00,34.6,25.1,30.35,ESE,115,1.0,7.0,68,0.00,,,0.00,Wunderground v.1.15,2013-11-11 09:52:00,
2013-11-11 04:56:00,34.5,24.7,30.35,ESE,115,1.0,7.0,67,0.00,,,0.00,Wunderground v.1.15,2013-11-11 09:56:00,
2013-11-11 04:57:00,34.4,24.6,30.35,ESE,115,1.0,7.0,67,0.00,,,0.00,Wunderground v.1.15,2013-11-11 09:57:00,
2013-11-11 04:58:00,34.4,25.3,30.35,ESE,115,1.0,7.0,69,0.00,,,0.00,Wunderground v.1.15,2013-11-11 09:58:00,
2013-11-11 05:01:00,34.4,24.9,30.35,ESE,115,0.0,7.0,68,0.00,,,0.00,Wunderground v.1.15,2013-11-11 10:01:00,
2013-11-11 05:02:00,34.4,24.9,30.35,ESE,115,0.0,7.0,68,0.00,,,0.00,Wunderground v.1.15,2013-11-11 10:02:00,
2013-11-11 05:03:00,34.4,25.3,30.35,ESE,115,0.0,7.0,69,0.00,,,0.00,Wunderground v.1.15,2013-11-11 10:03:00,
2013-11-11 05:04:00,34.4,24.9,30.35,ESE,115,0.0,7.0,68,0.00,,,0.00,Wunderground v.1.15,2013-11-11 10:04:00,
2013-11-11 05:06:00,34.4,24.9,30.35,ESE,115,0.0,7.0,68,0.00,,,0.00,Wunderground v.1.15,2013-11-11 10:06:00,
2013-11-11 05:07:00,34.4,25.3,30.35,ESE,115,0.0,7.0,69,0.00,,,0.00,Wunderground v.1.15,2013-11-11 10:07:00,
2013-11-11 05:09:00,34.3,25.5,30.35,ESE,115,1.0,7.0,70,0.00,,,0.00,Wunderground v.1.15,2013-11-11 10:09:00,
2013-11-11 05:11:00,34.1,25.7,30.35,ESE,115,1.0,7.0,71,0.00,,,0.00,Wunderground v.1.15,2013-11-11 10:11:00,
2013-11-11 05:13:00,33.9,25.5,30.35,ESE,115,1.0,7.0,71,0.00,,,0.00,Wunderground v.1.15,2013-11-11 10:13:00,
2013-11-11 05:14:00,33.8,25.7,30.35,ESE,115,1.0,7.0,72,0.00,,,0.00,Wunderground v.1.15,2013-11-11 10:14:00,
2013-11-11 05:16:00,33.5,25.4,30.35,ESE,115,1.0,7.0,72,0.00,,,0.00,Wunderground v.1.15,2013-11-11 10:16:00,
2013-11-11 05:18:00,33.4,25.0,30.35,ESE,115,1.0,7.0,71,0.00,,,0.00,Wunderground v.1.15,2013-11-11 10:18:00,
2013-11-11 05:19:00,33.3,25.2,30.35,ESE,115,1.0,7.0,72,0.00,,,0.00,Wunderground v.1.15,2013-11-11 10:19:00,
2013-11-11 05:21:00,33.3,24.9,30.36,ESE,115,1.0,7.0,71,0.00,,,0.00,Wunderground v.1.15,2013-11-11 10:21:00,
2013-11-11 05:24:00,33.2,25.5,30.36,ESE,115,1.0,7.0,73,0.00,,,0.00,Wunderground v.1.15,2013-11-11 10:24:00,
2013-11-11 05:25:00,33.1,25.4,30.36,ESE,115,1.0,7.0,73,0.00,,,0.00,Wunderground v.1.15,2013-11-11 10:25:00,
2013-11-11 05:26:00,33.0,25.3,30.36,ESE,115,1.0,7.0,73,0.00,,,0.00,Wunderground v.1.15,2013-11-11 10:26:00,
2013-11-11 05:27:00,33.0,25.6,30.36,ESE,115,0.0,7.0,74,0.00,,,0.00,Wunderground v.1.15,2013-11-11 10:27:00,
2013-11-11 05:28:00,32.9,25.5,30.36,ESE,115,0.0,7.0,74,0.00,,,0.00,Wunderground v.1.15,2013-11-11 10:28:00,
2013-11-11 05:31:00,32.7,25.6,30.36,ESE,115,0.0,7.0,75,0.00,,,0.00,Wunderground v.1.15,2013-11-11 10:31:00,
2013-11-11 05:32:00,32.6,25.6,30.36,ESE,115,0.0,7.0,75,0.00,,,0.00,Wunderground v.1.15,2013-11-11 10:32:00,
2013-11-11 05:33:00,32.6,25.6,30.36,ESE,115,0.0,7.0,75,0.00,,,0.00,Wunderground v.1.15,2013-11-11 10:33:00,
2013-11-11 05:35:00,32.6,25.6,30.36,ESE,115,1.0,7.0,75,0.00,,,0.00,Wunderground v.1.15,2013-11-11 10:35:00,
2013-11-11 05:37:00,32.5,25.8,30.36,ESE,115,1.0,7.0,76,0.00,,,0.00,Wunderground v.1.15,2013-11-11 10:37:00,
2013-11-11 05:38:00,32.5,25.8,30.36,ESE,115,1.0,7.0,76,0.00,,,0.00,Wunderground v.1.15,2013-11-11 10:38:00,
2013-11-11 05:39:00,32.4,25.4,30.36,ESE,115,1.0,7.0,75,0.00,,,0.00,Wunderground v.1.15,2013-11-11 10:39:00,
2013-11-11 05:42:00,32.0,25.3,30.37,ESE,115,1.0,7.0,76,0.00,,,0.00,Wunderground v.1.15,2013-11-11 10:42:00,
2013-11-11 05:45:00,31.7,25.0,30.37,ESE,115,0.0,7.0,76,0.00,,,0.00,Wunderground v.1.15,2013-11-11 10:45:00,
2013-11-11 05:47:00,31.6,25.5,30.36,ESE,115,1.0,7.0,78,0.00,,,0.00,Wunderground v.1.15,2013-11-11 10:47:00,
2013-11-11 05:48:00,31.5,25.4,30.37,ESE,115,1.0,7.0,78,0.00,,,0.00,Wunderground v.1.15,2013-11-11 10:48:00,
2013-11-11 05:53:00,31.4,25.0,30.37,ESE,115,1.0,7.0,77,0.00,,,0.00,Wunderground v.1.15,2013-11-11 10:53:00,
2013-11-11 05:56:00,31.2,25.1,30.37,ESE,115,2.0,7.0,78,0.00,,,0.00,Wunderground v.1.15,2013-11-11 10:56:00,
2013-11-11 05:58:00,31.2,25.1,30.37,ESE,115,1.0,7.0,78,0.00,,,0.00,Wunderground v.1.15,2013-11-11 10:58:00,
2013-11-11 05:59:00,31.1,25.0,30.37,ESE,115,1.0,7.0,78,0.00,,,0.00,Wunderground v.1.15,2013-11-11 10:59:00,
2013-11-11 06:00:00,31.1,25.0,30.37,ESE,115,1.0,1.0,78,0.00,,,0.00,Wunderground v.1.15,2013-11-11 11:00:00,
2013-11-11 06:03:00,31.0,24.9,30.37,ESE,115,1.0,7.0,78,0.00,,,0.00,Wunderground v.1.15,2013-11-11 11:03:00,
2013-11-11 06:04:00,30.9,25.2,30.37,ESE,115,0.0,7.0,79,0.00,,,0.00,Wunderground v.1.15,2013-11-11 11:04:00,
2013-11-11 06:05:00,30.9,25.2,30.37,ESE,115,0.0,7.0,79,0.00,,,0.00,Wunderground v.1.15,2013-11-11 11:05:00,
2013-11-11 06:07:00,30.8,24.7,30.37,ESE,115,0.0,7.0,78,0.00,,,0.00,Wunderground v.1.15,2013-11-11 11:07:00,
2013-11-11 06:08:00,30.8,24.7,30.38,ESE,115,0.0,7.0,78,0.00,,,0.00,Wunderground v.1.15,2013-11-11 11:08:00,
2013-11-11 06:09:00,30.8,25.4,30.38,ESE,115,0.0,7.0,80,0.00,,,0.00,Wunderground v.1.15,2013-11-11 11:09:00,
2013-11-11 06:10:00,30.7,25.0,30.38,ESE,115,0.0,7.0,79,0.00,,,0.00,Wunderground v.1.15,2013-11-11 11:10:00,
2013-11-11 06:11:00,30.7,25.0,30.38,ESE,115,0.0,7.0,79,0.00,,,0.00,Wunderground v.1.15,2013-11-11 11:11:00,
2013-11-11 06:14:00,30.6,24.9,30.38,ESE,115,0.0,7.0,79,0.00,,,0.00,Wunderground v.1.15,2013-11-11 11:14:00,
2013-11-11 06:15:00,30.6,25.5,30.38,ESE,115,0.0,7.0,81,0.00,,,0.00,Wunderground v.1.15,2013-11-11 11:15:00,
2013-11-11 06:16:00,30.6,25.5,30.38,ESE,115,0.0,7.0,81,0.00,,,0.00,Wunderground v.1.15,2013-11-11 11:16:00,
2013-11-11 06:18:00,30.6,25.8,30.38,ESE,115,0.0,7.0,82,0.00,,,0.00,Wunderground v.1.15,2013-11-11 11:18:00,
2013-11-11 06:20:00,30.6,25.5,30.38,ESE,115,0.0,7.0,81,0.00,,,0.00,Wunderground v.1.15,2013-11-11 11:20:00,
2013-11-11 06:22:00,30.5,25.4,30.38,ESE,115,0.0,7.0,81,0.00,,,0.00,Wunderground v.1.15,2013-11-11 11:22:00,
2013-11-11 06:23:00,30.4,25.3,30.38,ESE,115,0.0,7.0,81,0.00,,,0.00,Wunderground v.1.15,2013-11-11 11:23:00,
2013-11-11 06:24:00,30.3,25.2,30.38,ESE,115,0.0,7.0,81,0.00,,,0.00,Wunderground v.1.15,2013-11-11 11:24:00,
2013-11-11 06:27:00,30.2,25.4,30.38,ESE,115,0.0,7.0,82,0.00,,,0.00,Wunderground v.1.15,2013-11-11 11:27:00,
2013-11-11 06:28:00,30.1,25.3,30.38,ESE,115,0.0,7.0,82,0.00,,,0.00,Wunderground v.1.15,2013-11-11 11:28:00,
2013-11-11 06:30:00,29.9,25.1,30.39,ESE,115,0.0,7.0,82,0.00,,,0.00,Wunderground v.1.15,2013-11-11 11:30:00,
2013-11-11 06:31:00,29.9,25.1,30.39,ESE,115,0.0,7.0,82,0.00,,,0.00,Wunderground v.1.15,2013-11-11 11:31:00,
2013-11-11 06:34:00,29.8,25.3,30.39,ESE,115,0.0,7.0,83,0.00,,,0.00,Wunderground v.1.15,2013-11-11 11:34:00,
2013-11-11 06:35:00,29.8,25.3,30.39,ESE,115,0.0,7.0,83,0.00,,,0.00,Wunderground v.1.15,2013-11-11 11:35:00,
2013-11-11 06:36:00,29.8,25.3,30.39,ESE,115,0.0,7.0,83,0.00,,,0.00,Wunderground v.1.15,2013-11-11 11:36:00,
2013-11-11 06:37:00,29.8,25.3,30.39,ESE,115,0.0,7.0,83,0.00,,,0.00,Wunderground v.1.15,2013-11-11 11:37:00,
2013-11-11 06:38:00,29.8,25.3,30.39,ESE,115,0.0,7.0,83,0.00,,,0.00,Wunderground v.1.15,2013-11-11 11:38:00,
2013-11-11 06:42:00,29.7,24.6,30.39,ESE,115,0.0,7.0,81,0.00,,,0.00,Wunderground v.1.15,2013-11-11 11:42:00,
2013-11-11 06:43:00,29.8,25.0,30.39,ESE,115,0.0,7.0,82,0.00,,,0.00,Wunderground v.1.15,2013-11-11 11:43:00,
2013-11-11 06:44:00,29.8,25.6,30.39,ESE,115,0.0,7.0,84,0.00,,,0.00,Wunderground v.1.15,2013-11-11 11:44:00,
2013-11-11 06:45:00,29.8,25.3,30.39,ESE,115,0.0,7.0,83,0.00,,,0.00,Wunderground v.1.15,2013-11-11 11:45:00,
2013-11-11 06:48:00,29.7,25.2,30.39,ESE,115,0.0,7.0,83,0.00,,,0.00,Wunderground v.1.15,2013-11-11 11:48:00,
2013-11-11 06:50:00,29.6,24.8,30.39,ESE,115,0.0,7.0,82,0.00,,,0.00,Wunderground v.1.15,2013-11-11 11:50:00,
2013-11-11 06:54:00,29.3,24.8,30.39,ESE,115,1.0,7.0,83,0.00,,,0.00,Wunderground v.1.15,2013-11-11 11:54:00,
2013-11-11 06:55:00,29.2,24.7,30.39,ESE,115,1.0,7.0,83,0.00,,,0.00,Wunderground v.1.15,2013-11-11 11:55:00,
2013-11-11 06:58:00,29.1,25.2,30.39,ESE,115,1.0,7.0,85,0.00,,,0.00,Wunderground v.1.15,2013-11-11 11:58:00,
2013-11-11 07:00:00,29.0,25.1,30.39,ESE,115,1.0,1.0,85,0.00,,,0.00,Wunderground v.1.15,2013-11-11 12:00:00,
2013-11-11 07:01:00,28.9,25.0,30.39,ESE,115,0.0,7.0,85,0.00,,,0.00,Wunderground v.1.15,2013-11-11 12:01:00,
2013-11-11 07:05:00,28.9,25.0,30.39,ESE,115,0.0,7.0,85,0.00,,,0.00,Wunderground v.1.15,2013-11-11 12:05:00,
2013-11-11 07:06:00,29.0,25.1,30.40,ESE,115,0.0,7.0,85,0.00,,,0.00,Wunderground v.1.15,2013-11-11 12:06:00,
2013-11-11 07:07:00,28.9,25.0,30.40,ESE,115,0.0,7.0,85,0.00,,,0.00,Wunderground v.1.15,2013-11-11 12:07:00,
2013-11-11 07:09:00,28.9,25.0,30.40,ESE,115,0.0,7.0,85,0.00,,,0.00,Wunderground v.1.15,2013-11-11 12:09:00,
2013-11-11 07:11:00,28.8,24.9,30.40,ESE,115,0.0,7.0,85,0.00,,,0.00,Wunderground v.1.15,2013-11-11 12:11:00,
2013-11-11 07:13:00,28.8,24.9,30.40,ESE,115,0.0,7.0,85,0.00,,,0.00,Wunderground v.1.15,2013-11-11 12:13:00,
2013-11-11 07:15:00,28.7,24.8,30.40,ESE,115,1.0,7.0,85,0.00,,,0.00,Wunderground v.1.15,2013-11-11 12:15:00,
2013-11-11 07:17:00,28.7,24.5,30.40,ESE,115,1.0,7.0,84,0.00,,,0.00,Wunderground v.1.15,2013-11-11 12:17:00,
2013-11-11 07:20:00,28.6,24.9,30.41,ESE,115,1.0,1.0,86,0.00,,,0.00,Wunderground v.1.15,2013-11-11 12:20:00,
2013-11-11 07:21:00,28.7,25.6,30.41,ESE,115,1.0,7.0,88,0.00,,,0.00,Wunderground v.1.15,2013-11-11 12:21:00,
2013-11-11 07:22:00,28.7,25.3,30.41,ESE,115,1.0,7.0,87,0.00,,,0.00,Wunderground v.1.15,2013-11-11 12:22:00,
2013-11-11 07:24:00,28.7,25.0,30.41,ESE,115,1.0,7.0,86,0.00,,,0.00,Wunderground v.1.15,2013-11-11 12:24:00,
2013-11-11 07:26:00,28.7,25.0,30.41,ESE,115,0.0,7.0,86,0.00,,,0.00,Wunderground v.1.15,2013-11-11 12:26:00,
2013-11-11 07:27:00,28.7,24.8,30.41,ESE,115,0.0,7.0,85,0.00,,,0.00,Wunderground v.1.15,2013-11-11 12:27:00,
2013-11-11 07:28:00,28.7,24.8,30.41,ESE,115,0.0,7.0,85,0.00,,,0.00,Wunderground v.1.15,2013-11-11 12:28:00,
2013-11-11 07:29:00,28.8,24.9,30.41,ESE,115,0.0,7.0,85,0.00,,,0.00,Wunderground v.1.15,2013-11-11 12:29:00,
2013-11-11 07:31:00,28.9,25.0,30.41,ESE,115,0.0,7.0,85,0.00,,,0.00,Wunderground v.1.15,2013-11-11 12:31:00,
2013-11-11 07:35:00,29.0,24.8,30.41,ESE,115,0.0,7.0,84,0.00,,,0.00,Wunderground v.1.15,2013-11-11 12:35:00,
2013-11-11 07:36:00,29.0,24.8,30.41,ESE,115,0.0,7.0,84,0.00,,,0.00,Wunderground v.1.15,2013-11-11 12:36:00,
2013-11-11 07:40:00,29.2,24.7,30.42,ESE,115,0.0,7.0,83,0.00,,,0.00,Wunderground v.1.15,2013-11-11 12:40:00,
2013-11-11 07:42:00,29.2,25.0,30.41,ESE,115,0.0,7.0,84,0.00,,,0.00,Wunderground v.1.15,2013-11-11 12:42:00,
2013-11-11 07:43:00,29.3,25.1,30.41,ESE,115,0.0,7.0,84,0.00,,,0.00,Wunderground v.1.15,2013-11-11 12:43:00,
2013-11-11 07:44:00,29.3,25.1,30.42,ESE,115,0.0,7.0,84,0.00,,,0.00,Wunderground v.1.15,2013-11-11 12:44:00,
2013-11-11 07:45:00,29.3,25.1,30.42,ESE,115,0.0,7.0,84,0.00,,,0.00,Wunderground v.1.15,2013-11-11 12:45:00,
2013-11-11 07:46:00,29.5,25.5,30.42,ESE,115,0.0,7.0,85,0.00,,,0.00,Wunderground v.1.15,2013-11-11 12:46:00,
2013-11-11 07:48:00,29.7,25.7,30.42,ESE,115,0.0,7.0,85,0.00,,,0.00,Wunderground v.1.15,2013-11-11 12:48:00,
2013-11-11 07:50:00,29.9,25.9,30.41,ESE,115,0.0,7.0,85,0.00,,,0.00,Wunderground v.1.15,2013-11-11 12:50:00,
2013-11-11 07:51:00,30.0,25.8,30.41,ESE,115,0.0,7.0,84,0.00,,,0.00,Wunderground v.1.15,2013-11-11 12:51:00,
2013-11-11 07:53:00,30.1,25.8,30.41,ESE,115,1.0,7.0,84,0.00,,,0.00,Wunderground v.1.15,2013-11-11 12:53:00,
2013-11-11 07:56:00,30.3,26.3,30.42,ESE,115,1.0,7.0,85,0.00,,,0.00,Wunderground v.1.15,2013-11-11 12:56:00,
2013-11-11 07:57:00,30.4,26.4,30.42,ESE,115,1.0,7.0,85,0.00,,,0.00,Wunderground v.1.15,2013-11-11 12:57:00,
2013-11-11 07:58:00,30.4,26.1,30.41,ESE,115,1.0,7.0,84,0.00,,,0.00,Wunderground v.1.15,2013-11-11 12:58:00,
2013-11-11 07:59:00,30.5,26.2,30.41,ESE,115,1.0,7.0,84,0.00,,,0.00,Wunderground v.1.15,2013-11-11 12:59:00,
2013-11-11 08:01:00,30.5,26.0,30.42,ESE,115,1.0,7.0,83,0.00,,,0.00,Wunderground v.1.15,2013-11-11 13:01:00,
2013-11-11 08:04:00,30.6,25.8,30.42,ESE,115,0.0,7.0,82,0.00,,,0.00,Wunderground v.1.15,2013-11-11 13:04:00,
2013-11-11 08:07:00,30.9,26.3,30.42,ESE,115,0.0,7.0,83,0.00,,,0.00,Wunderground v.1.15,2013-11-11 13:07:00,
2013-11-11 08:08:00,31.0,26.7,30.42,ESE,115,0.0,7.0,84,0.00,,,0.00,Wunderground v.1.15,2013-11-11 13:08:00,
2013-11-11 08:09:00,31.1,26.8,30.42,ESE,115,0.0,7.0,84,0.00,,,0.00,Wunderground v.1.15,2013-11-11 13:09:00,
2013-11-11 08:10:00,31.3,27.3,30.42,ESE,115,0.0,7.0,85,0.00,,,0.00,Wunderground v.1.15,2013-11-11 13:10:00,
2013-11-11 08:11:00,31.5,27.5,30.42,ESE,115,0.0,7.0,85,0.00,,,0.00,Wunderground v.1.15,2013-11-11 13:11:00,
2013-11-11 08:14:00,31.9,27.3,30.42,ESE,115,0.0,7.0,83,0.00,,,0.00,Wunderground v.1.15,2013-11-11 13:14:00,
2013-11-11 08:15:00,32.1,27.5,30.42,ESE,115,0.0,7.0,83,0.00,,,0.00,Wunderground v.1.15,2013-11-11 13:15:00,
2013-11-11 08:16:00,32.2,27.6,30.42,ESE,115,0.0,7.0,83,0.00,,,0.00,Wunderground v.1.15,2013-11-11 13:16:00,
2013-11-11 08:18:00,32.5,27.3,30.42,ESE,115,0.0,7.0,81,0.00,,,0.00,Wunderground v.1.15,2013-11-11 13:18:00,
2013-11-11 08:20:00,32.6,27.1,30.43,ESE,115,0.0,7.0,80,0.00,,,0.00,Wunderground v.1.15,2013-11-11 13:20:00,
2013-11-11 08:21:00,32.8,26.7,30.43,ESE,115,0.0,7.0,78,0.00,,,0.00,Wunderground v.1.15,2013-11-11 13:21:00,
2013-11-11 08:22:00,32.9,26.5,30.43,ESE,115,0.0,7.0,77,0.00,,,0.00,Wunderground v.1.15,2013-11-11 13:22:00,
2013-11-11 08:24:00,33.1,27.3,30.43,ESE,115,0.0,7.0,79,0.00,,,0.00,Wunderground v.1.15,2013-11-11 13:24:00,
2013-11-11 08:25:00,33.3,27.5,30.43,ESE,115,0.0,7.0,79,0.00,,,0.00,Wunderground v.1.15,2013-11-11 13:25:00,
2013-11-11 08:26:00,33.4,27.6,30.43,ESE,115,0.0,7.0,79,0.00,,,0.00,Wunderground v.1.15,2013-11-11 13:26:00,
2013-11-11 08:27:00,33.6,27.5,30.43,ESE,115,0.0,7.0,78,0.00,,,0.00,Wunderground v.1.15,2013-11-11 13:27:00,
2013-11-11 08:29:00,34.0,28.5,30.43,SE,127,0.0,7.0,80,0.00,,,0.00,Wunderground v.1.15,2013-11-11 13:29:00,
2013-11-11 08:30:00,34.2,28.7,30.43,SE,127,0.0,7.0,80,0.00,,,0.00,Wunderground v.1.15,2013-11-11 13:30:00,
2013-11-11 08:31:00,34.3,28.5,30.43,SE,127,0.0,7.0,79,0.00,,,0.00,Wunderground v.1.15,2013-11-11 13:31:00,
2013-11-11 08:33:00,34.5,28.7,30.43,SE,127,0.0,7.0,79,0.00,,,0.00,Wunderground v.1.15,2013-11-11 13:33:00,
2013-11-11 08:36:00,34.8,27.7,30.43,SE,127,0.0,7.0,75,0.00,,,0.00,Wunderground v.1.15,2013-11-11 13:36:00,
2013-11-11 08:37:00,34.9,27.8,30.44,SE,127,0.0,7.0,75,0.00,,,0.00,Wunderground v.1.15,2013-11-11 13:37:00,
2013-11-11 08:39:00,35.1,27.6,30.43,SE,127,0.0,7.0,74,0.00,,,0.00,Wunderground v.1.15,2013-11-11 13:39:00,
2013-11-11 08:40:00,35.2,27.4,30.43,SE,127,0.0,7.0,73,0.00,,,0.00,Wunderground v.1.15,2013-11-11 13:40:00,
2013-11-11 08:41:00,35.4,27.9,30.43,South,176,0.0,7.0,74,0.00,,,0.00,Wunderground v.1.15,2013-11-11 13:41:00,
2013-11-11 08:43:00,35.6,28.1,30.44,South,176,0.0,7.0,74,0.00,,,0.00,Wunderground v.1.15,2013-11-11 13:43:00,
2013-11-11 08:44:00,35.7,28.6,30.44,South,176,0.0,7.0,75,0.00,,,0.00,Wunderground v.1.15,2013-11-11 13:44:00,
2013-11-11 08:45:00,35.9,28.7,30.44,South,176,0.0,7.0,75,0.00,,,0.00,Wunderground v.1.15,2013-11-11 13:45:00,
2013-11-11 08:48:00,36.3,28.5,30.44,South,176,0.0,7.0,73,0.00,,,0.00,Wunderground v.1.15,2013-11-11 13:48:00,
2013-11-11 08:49:00,36.4,28.2,30.44,South,176,0.0,7.0,72,0.00,,,0.00,Wunderground v.1.15,2013-11-11 13:49:00,
2013-11-11 08:50:00,36.6,28.1,30.44,South,176,0.0,7.0,71,0.00,,,0.00,Wunderground v.1.15,2013-11-11 13:50:00,
2013-11-11 08:51:00,36.7,28.2,30.44,South,178,0.0,7.0,71,0.00,,,0.00,Wunderground v.1.15,2013-11-11 13:51:00,
2013-11-11 08:54:00,37.1,28.6,30.44,South,178,0.0,7.0,71,0.00,,,0.00,Wunderground v.1.15,2013-11-11 13:54:00,
2013-11-11 08:56:00,37.3,28.8,30.44,South,178,0.0,7.0,71,0.00,,,0.00,Wunderground v.1.15,2013-11-11 13:56:00,
2013-11-11 08:57:00,37.4,28.5,30.44,South,178,0.0,7.0,70,0.00,,,0.00,Wunderground v.1.15,2013-11-11 13:57:00,
2013-11-11 08:58:00,37.5,28.6,30.44,South,178,0.0,7.0,70,0.00,,,0.00,Wunderground v.1.15,2013-11-11 13:58:00,
2013-11-11 08:59:00,37.6,28.7,30.44,South,178,0.0,7.0,70,0.00,,,0.00,Wunderground v.1.15,2013-11-11 13:59:00,
2013-11-11 09:01:00,37.8,29.2,30.44,South,178,0.0,7.0,71,0.00,,,0.00,Wunderground v.1.15,2013-11-11 14:01:00,
2013-11-11 09:02:00,38.0,29.1,30.44,South,178,0.0,7.0,70,0.00,,,0.00,Wunderground v.1.15,2013-11-11 14:02:00,
2013-11-11 09:04:00,38.5,29.6,30.44,South,178,0.0,7.0,70,0.00,,,0.00,Wunderground v.1.15,2013-11-11 14:04:00,
2013-11-11 09:06:00,39.0,30.4,30.44,South,178,0.0,7.0,71,0.00,,,0.00,Wunderground v.1.15,2013-11-11 14:06:00,
2013-11-11 09:08:00,39.5,30.5,30.44,South,178,0.0,7.0,70,0.00,,,0.00,Wunderground v.1.15,2013-11-11 14:08:00,
2013-11-11 09:09:00,39.6,30.6,30.44,South,178,0.0,7.0,70,0.00,,,0.00,Wunderground v.1.15,2013-11-11 14:09:00,
2013-11-11 09:10:00,39.8,30.5,30.44,South,180,0.0,7.0,69,0.00,,,0.00,Wunderground v.1.15,2013-11-11 14:10:00,
2013-11-11 09:11:00,39.9,30.2,30.44,South,180,0.0,7.0,68,0.00,,,0.00,Wunderground v.1.15,2013-11-11 14:11:00,
2013-11-11 09:12:00,40.0,29.9,30.44,South,180,0.0,7.0,67,0.00,,,0.00,Wunderground v.1.15,2013-11-11 14:12:00,
2013-11-11 09:13:00,40.2,30.1,30.44,South,180,0.0,7.0,67,0.00,,,0.00,Wunderground v.1.15,2013-11-11 14:13:00,
2013-11-11 09:17:00,40.6,30.5,30.44,South,180,0.0,7.0,67,0.00,,,0.00,Wunderground v.1.15,2013-11-11 14:17:00,
2013-11-11 09:18:00,40.7,30.2,30.44,South,180,0.0,7.0,66,0.00,,,0.00,Wunderground v.1.15,2013-11-11 14:18:00,
2013-11-11 09:20:00,41.1,30.6,30.44,South,180,0.0,7.0,66,0.00,,,0.00,Wunderground v.1.15,2013-11-11 14:20:00,
2013-11-11 09:21:00,41.3,30.8,30.44,South,180,0.0,7.0,66,0.00,,,0.00,Wunderground v.1.15,2013-11-11 14:21:00,
2013-11-11 09:23:00,41.5,30.6,30.44,South,180,0.0,7.0,65,0.00,,,0.00,Wunderground v.1.15,2013-11-11 14:23:00,
2013-11-11 09:24:00,41.6,30.7,30.44,South,180,0.0,7.0,65,0.00,,,0.00,Wunderground v.1.15,2013-11-11 14:24:00,
2013-11-11 09:26:00,41.8,31.3,30.44,South,180,0.0,7.0,66,0.00,,,0.00,Wunderground v.1.15,2013-11-11 14:26:00,
2013-11-11 09:27:00,42.0,31.5,30.44,South,180,0.0,7.0,66,0.00,,,0.00,Wunderground v.1.15,2013-11-11 14:27:00,
2013-11-11 09:28:00,42.3,31.4,30.44,South,180,0.0,7.0,65,0.00,,,0.00,Wunderground v.1.15,2013-11-11 14:28:00,
2013-11-11 09:29:00,42.5,30.8,30.44,South,180,0.0,7.0,63,0.00,,,0.00,Wunderground v.1.15,2013-11-11 14:29:00,
2013-11-11 09:31:00,43.0,30.9,30.44,South,180,0.0,7.0,62,0.00,,,0.00,Wunderground v.1.15,2013-11-11 14:31:00,
2013-11-11 09:32:00,43.2,31.1,30.44,South,180,0.0,7.0,62,0.00,,,0.00,Wunderground v.1.15,2013-11-11 14:32:00,
2013-11-11 09:33:00,43.4,31.2,30.44,South,183,0.0,7.0,62,0.00,,,0.00,Wunderground v.1.15,2013-11-11 14:33:00,
2013-11-11 09:34:00,43.6,30.6,30.44,South,183,1.0,7.0,60,0.00,,,0.00,Wunderground v.1.15,2013-11-11 14:34:00,
2013-11-11 09:37:00,44.1,30.3,30.44,SE,146,1.0,7.0,58,0.00,,,0.00,Wunderground v.1.15,2013-11-11 14:37:00,
2013-11-11 09:38:00,44.3,30.0,30.44,SE,146,1.0,7.0,57,0.00,,,0.00,Wunderground v.1.15,2013-11-11 14:38:00,
2013-11-11 09:39:00,44.5,29.3,30.44,SE,146,1.0,7.0,55,0.00,,,0.00,Wunderground v.1.15,2013-11-11 14:39:00,
2013-11-11 09:41:00,44.9,29.2,30.44,SSE,149,1.0,6.0,54,0.00,,,0.00,Wunderground v.1.15,2013-11-11 14:41:00,
2013-11-11 09:42:00,45.1,28.5,30.44,SSE,155,1.0,7.0,52,0.00,,,0.00,Wunderground v.1.15,2013-11-11 14:42:00,
2013-11-11 09:43:00,45.2,28.1,30.44,SSE,157,2.0,7.0,51,0.00,,,0.00,Wunderground v.1.15,2013-11-11 14:43:00,
2013-11-11 09:44:00,45.4,28.3,30.44,SSE,154,2.0,7.0,51,0.00,,,0.00,Wunderground v.1.15,2013-11-11 14:44:00,
2013-11-11 09:45:00,45.5,27.4,30.44,SSE,157,2.0,7.0,49,0.00,,,0.00,Wunderground v.1.15,2013-11-11 14:45:00,
2013-11-11 09:46:00,45.6,27.5,30.44,South,177,2.0,7.0,49,0.00,,,0.00,Wunderground v.1.15,2013-11-11 14:46:00,
2013-11-11 09:49:00,46.1,28.0,30.44,SSE,153,3.0,7.0,49,0.00,,,0.00,Wunderground v.1.15,2013-11-11 14:49:00,
2013-11-11 09:52:00,46.4,25.6,30.44,South,177,3.0,7.0,44,0.00,,,0.00,Wunderground v.1.15,2013-11-11 14:52:00,
2013-11-11 09:54:00,46.5,27.3,30.44,SSE,154,3.0,7.0,47,0.00,,,0.00,Wunderground v.1.15,2013-11-11 14:54:00,
2013-11-11 09:55:00,46.6,27.9,30.44,SSW,195,3.0,7.0,48,0.00,,,0.00,Wunderground v.1.15,2013-11-11 14:55:00,
2013-11-11 09:56:00,46.6,26.4,30.44,South,186,3.0,7.0,45,0.00,,,0.00,Wunderground v.1.15,2013-11-11 14:56:00,
2013-11-11 09:58:00,46.7,25.4,30.44,SSE,147,4.0,7.0,43,0.00,,,0.00,Wunderground v.1.15,2013-11-11 14:58:00,
2013-11-11 09:59:00,46.7,25.9,30.44,SSE,150,4.0,7.0,44,0.00,,,0.00,Wunderground v.1.15,2013-11-11 14:59:00,
2013-11-11 10:01:00,46.7,25.4,30.44,SE,135,4.0,6.0,43,0.00,,,0.00,Wunderground v.1.15,2013-11-11 15:01:00,
2013-11-11 10:02:00,46.8,26.0,30.44,SE,136,4.0,7.0,44,0.00,,,0.00,Wunderground v.1.15,2013-11-11 15:02:00,
2013-11-11 10:04:00,47.0,26.2,30.44,SE,144,4.0,7.0,44,0.00,,,0.00,Wunderground v.1.15,2013-11-11 15:04:00,
2013-11-11 10:06:00,47.1,25.7,30.44,ESE,114,4.0,7.0,43,0.00,,,0.00,Wunderground v.1.15,2013-11-11 15:06:00,
2013-11-11 10:07:00,47.2,26.9,30.44,ESE,102,4.0,7.0,45,0.00,,,0.00,Wunderground v.1.15,2013-11-11 15:07:00,
2013-11-11 10:10:00,47.5,25.5,30.44,ESE,113,4.0,7.0,42,0.00,,,0.00,Wunderground v.1.15,2013-11-11 15:10:00,
2013-11-11 10:11:00,47.6,26.7,30.44,SE,132,4.0,7.0,44,0.00,,,0.00,Wunderground v.1.15,2013-11-11 15:11:00,
2013-11-11 10:12:00,47.7,26.8,30.44,South,169,4.0,7.0,44,0.00,,,0.00,Wunderground v.1.15,2013-11-11 15:12:00,
2013-11-11 10:17:00,47.9,25.3,30.44,SSE,154,4.0,8.0,41,0.00,,,0.00,Wunderground v.1.15,2013-11-11 15:17:00,
2013-11-11 10:18:00,47.8,25.2,30.44,SE,143,5.0,8.0,41,0.00,,,0.00,Wunderground v.1.15,2013-11-11 15:18:00,
2013-11-11 10:19:00,47.8,25.8,30.44,SE,125,5.0,8.0,42,0.00,,,0.00,Wunderground v.1.15,2013-11-11 15:19:00,
2013-11-11 10:21:00,47.8,25.2,30.44,SE,141,4.0,7.0,41,0.00,,,0.00,Wunderground v.1.15,2013-11-11 15:21:00,
2013-11-11 10:22:00,47.8,25.8,30.44,SE,144,4.0,7.0,42,0.00,,,0.00,Wunderground v.1.15,2013-11-11 15:22:00,
2013-11-11 10:24:00,48.1,27.2,30.44,ESE,113,4.0,7.0,44,0.00,,,0.00,Wunderground v.1.15,2013-11-11 15:24:00,
2013-11-11 10:26:00,48.2,25.0,30.44,ESE,115,4.0,8.0,40,0.00,,,0.00,Wunderground v.1.15,2013-11-11 15:26:00,
2013-11-11 10:27:00,48.1,24.9,30.44,ESE,116,4.0,8.0,40,0.00,,,0.00,Wunderground v.1.15,2013-11-11 15:27:00,
2013-11-11 10:28:00,48.0,24.8,30.44,ESE,107,4.0,8.0,40,0.00,,,0.00,Wunderground v.1.15,2013-11-11 15:28:00,
2013-11-11 10:29:00,47.8,25.2,30.44,SE,143,5.0,8.0,41,0.00,,,0.00,Wunderground v.1.15,2013-11-11 15:29:00,
2013-11-11 10:31:00,47.8,25.2,30.44,SE,128,5.0,7.0,41,0.00,,,0.00,Wunderground v.1.15,2013-11-11 15:31:00,
2013-11-11 10:33:00,47.9,27.0,30.44,SSE,147,5.0,7.0,44,0.00,,,0.00,Wunderground v.1.15,2013-11-11 15:33:00,
2013-11-11 10:34:00,48.1,26.6,30.44,SSE,156,5.0,7.0,43,0.00,,,0.00,Wunderground v.1.15,2013-11-11 15:34:00,
2013-11-11 10:37:00,48.3,25.1,30.44,SSE,159,5.0,7.0,40,0.00,,,0.00,Wunderground v.1.15,2013-11-11 15:37:00,
2013-11-11 10:38:00,48.3,25.7,30.44,SSE,165,4.0,7.0,41,0.00,,,0.00,Wunderground v.1.15,2013-11-11 15:38:00,
2013-11-11 10:39:00,48.3,25.7,30.44,South,177,4.0,7.0,41,0.00,,,0.00,Wunderground v.1.15,2013-11-11 15:39:00,
2013-11-11 10:43:00,48.2,25.0,30.44,SSE,156,5.0,7.0,40,0.00,,,0.00,Wunderground v.1.15,2013-11-11 15:43:00,
2013-11-11 10:44:00,48.2,24.4,30.44,SSE,156,5.0,7.0,39,0.00,,,0.00,Wunderground v.1.15,2013-11-11 15:44:00,
2013-11-11 10:46:00,48.3,25.7,30.44,SSE,153,4.0,7.0,41,0.00,,,0.00,Wunderground v.1.15,2013-11-11 15:46:00,
2013-11-11 10:49:00,48.5,25.2,30.43,SSE,160,4.0,7.0,40,0.00,,,0.00,Wunderground v.1.15,2013-11-11 15:49:00,
2013-11-11 10:50:00,48.5,25.2,30.43,SSE,160,4.0,4.0,40,0.00,,,0.00,Wunderground v.1.15,2013-11-11 15:50:00,
2013-11-11 10:51:00,48.6,25.3,30.43,SSE,150,4.0,7.0,40,0.00,,,0.00,Wunderground v.1.15,2013-11-11 15:51:00,
2013-11-11 10:52:00,48.7,24.8,30.43,SSE,153,3.0,7.0,39,0.00,,,0.00,Wunderground v.1.15,2013-11-11 15:52:00,
2013-11-11 10:55:00,48.7,24.8,30.43,SSE,156,3.0,7.0,39,0.00,,,0.00,Wunderground v.1.15,2013-11-11 15:55:00,
2013-11-11 10:56:00,48.7,24.8,30.43,SSE,150,3.0,7.0,39,0.00,,,0.00,Wunderground v.1.15,2013-11-11 15:56:00,
2013-11-11 10:58:00,48.7,25.4,30.43,SSE,147,3.0,7.0,40,0.00,,,0.00,Wunderground v.1.15,2013-11-11 15:58:00,
2013-11-11 11:01:00,49.0,25.7,30.42,SSE,153,3.0,7.0,40,0.00,,,0.00,Wunderground v.1.15,2013-11-11 16:01:00,
2013-11-11 11:04:00,49.4,26.1,30.42,SSW,207,3.0,7.0,40,0.00,,,0.00,Wunderground v.1.15,2013-11-11 16:04:00,
2013-11-11 11:06:00,49.4,25.4,30.42,South,177,4.0,7.0,39,0.00,,,0.00,Wunderground v.1.15,2013-11-11 16:06:00,
2013-11-11 11:08:00,49.5,25.5,30.42,SSW,202,4.0,7.0,39,0.00,,,0.00,Wunderground v.1.15,2013-11-11 16:08:00,
2013-11-11 11:09:00,49.5,26.7,30.42,SE,143,5.0,7.0,41,0.00,,,0.00,Wunderground v.1.15,2013-11-11 16:09:00,
2013-11-11 11:10:00,49.5,25.5,30.42,SSW,196,5.0,7.0,39,0.00,,,0.00,Wunderground v.1.15,2013-11-11 16:10:00,
2013-11-11 11:14:00,49.5,24.9,30.42,SSE,157,6.0,8.0,38,0.00,,,0.00,Wunderground v.1.15,2013-11-11 16:14:00,
2013-11-11 11:15:00,49.5,25.5,30.42,SSE,159,6.0,8.0,39,0.00,,,0.00,Wunderground v.1.15,2013-11-11 16:15:00,
2013-11-11 11:16:00,49.6,26.8,30.42,SSE,163,6.0,8.0,41,0.00,,,0.00,Wunderground v.1.15,2013-11-11 16:16:00,
2013-11-11 11:19:00,49.9,25.9,30.42,South,177,6.0,8.0,39,0.00,,,0.00,Wunderground v.1.15,2013-11-11 16:19:00,
2013-11-11 11:22:00,50.0,25.4,30.42,SSW,192,6.0,8.0,38,0.00,,,0.00,Wunderground v.1.15,2013-11-11 16:22:00,
2013-11-11 11:23:00,50.1,25.5,30.42,SSW,197,5.0,8.0,38,0.00,,,0.00,Wunderground v.1.15,2013-11-11 16:23:00,
2013-11-11 11:25:00,50.1,26.1,30.41,SSW,199,5.0,8.0,39,0.00,,,0.00,Wunderground v.1.15,2013-11-11 16:25:00,
2013-11-11 11:26:00,50.2,25.5,30.41,SW,217,5.0,8.0,38,0.00,,,0.00,Wunderground v.1.15,2013-11-11 16:26:00,
2013-11-11 11:27:00,50.3,25.6,30.41,South,171,5.0,8.0,38,0.00,,,0.00,Wunderground v.1.15,2013-11-11 16:27:00,
2013-11-11 11:31:00,50.5,25.2,30.41,SSE,155,5.0,7.0,37,0.00,,,0.00,Wunderground v.1.15,2013-11-11 16:31:00,
2013-11-11 11:32:00,50.5,25.2,30.41,SSE,150,5.0,7.0,37,0.00,,,0.00,Wunderground v.1.15,2013-11-11 16:32:00,
2013-11-11 11:35:00,50.6,25.3,30.41,South,182,5.0,7.0,37,0.00,,,0.00,Wunderground v.1.15,2013-11-11 16:35:00,
2013-11-11 11:36:00,50.6,25.3,30.40,South,185,5.0,7.0,37,0.00,,,0.00,Wunderground v.1.15,2013-11-11 16:36:00,
2013-11-11 11:37:00,50.7,26.0,30.41,South,169,5.0,7.0,38,0.00,,,0.00,Wunderground v.1.15,2013-11-11 16:37:00,
2013-11-11 11:38:00,50.9,24.9,30.40,SSW,192,5.0,7.0,36,0.00,,,0.00,Wunderground v.1.15,2013-11-11 16:38:00,
2013-11-11 11:40:00,50.9,24.9,30.40,SE,146,5.0,5.0,36,0.00,,,0.00,Wunderground v.1.15,2013-11-11 16:40:00,
2013-11-11 11:41:00,50.9,24.9,30.40,SSE,155,5.0,7.0,36,0.00,,,0.00,Wunderground v.1.15,2013-11-11 16:41:00,
2013-11-11 11:43:00,50.9,26.2,30.40,SSE,163,5.0,7.0,38,0.00,,,0.00,Wunderground v.1.15,2013-11-11 16:43:00,
2013-11-11 11:44:00,50.9,24.9,30.40,South,180,5.0,7.0,36,0.00,,,0.00,Wunderground v.1.15,2013-11-11 16:44:00,
2013-11-11 11:45:00,51.0,25.0,30.40,South,183,5.0,7.0,36,0.00,,,0.00,Wunderground v.1.15,2013-11-11 16:45:00,
2013-11-11 11:46:00,50.9,24.2,30.40,South,183,5.0,7.0,35,0.00,,,0.00,Wunderground v.1.15,2013-11-11 16:46:00,
2013-11-11 11:51:00,51.2,25.1,30.39,SE,140,4.0,7.0,36,0.00,,,0.00,Wunderground v.1.15,2013-11-11 16:51:00,
2013-11-11 11:52:00,51.3,25.2,30.39,SSE,160,5.0,7.0,36,0.00,,,0.00,Wunderground v.1.15,2013-11-11 16:52:00,
2013-11-11 11:53:00,51.4,25.3,30.39,South,185,4.0,7.0,36,0.00,,,0.00,Wunderground v.1.15,2013-11-11 16:53:00,
2013-11-11 11:55:00,51.5,26.1,30.39,South,180,5.0,7.0,37,0.00,,,0.00,Wunderground v.1.15,2013-11-11 16:55:00,
2013-11-11 11:56:00,51.5,25.4,30.39,South,170,5.0,7.0,36,0.00,,,0.00,Wunderground v.1.15,2013-11-11 16:56:00,
2013-11-11 11:57:00,51.6,25.5,30.39,SSW,198,5.0,7.0,36,0.00,,,0.00,Wunderground v.1.15,2013-11-11 16:57:00,
2013-11-11 12:00:00,51.7,25.6,30.39,SSE,150,5.0,7.0,36,0.00,,,0.00,Wunderground v.1.15,2013-11-11 17:00:00,
2013-11-11 12:01:00,51.7,25.6,30.38,SSE,148,5.0,7.0,36,0.00,,,0.00,Wunderground v.1.15,2013-11-11 17:01:00,
2013-11-11 12:02:00,51.8,25.7,30.38,SSE,161,5.0,7.0,36,0.00,,,0.00,Wunderground v.1.15,2013-11-11 17:02:00,
2013-11-11 12:07:00,52.0,25.2,30.38,South,171,5.0,7.0,35,0.00,,,0.00,Wunderground v.1.15,2013-11-11 17:07:00,
2013-11-11 12:08:00,52.0,24.5,30.38,South,173,5.0,7.0,34,0.00,,,0.00,Wunderground v.1.15,2013-11-11 17:08:00,
2013-11-11 12:10:00,52.1,24.6,30.38,SSE,152,5.0,5.0,34,0.00,,,0.00,Wunderground v.1.15,2013-11-11 17:10:00,
2013-11-11 12:13:00,52.0,24.5,30.38,SE,126,4.0,7.0,34,0.00,,,0.00,Wunderground v.1.15,2013-11-11 17:13:00,
2013-11-11 12:14:00,52.0,23.8,30.38,SSE,153,4.0,7.0,33,0.00,,,0.00,Wunderground v.1.15,2013-11-11 17:14:00,
2013-11-11 12:15:00,52.1,24.6,30.38,SE,129,4.0,7.0,34,0.00,,,0.00,Wunderground v.1.15,2013-11-11 17:15:00,
2013-11-11 12:16:00,52.1,24.6,30.38,SSE,155,4.0,7.0,34,0.00,,,0.00,Wunderground v.1.15,2013-11-11 17:16:00,
2013-11-11 12:17:00,52.3,26.1,30.38,South,175,4.0,7.0,36,0.00,,,0.00,Wunderground v.1.15,2013-11-11 17:17:00,
2013-11-11 12:19:00,52.5,24.9,30.37,SSE,148,3.0,7.0,34,0.00,,,0.00,Wunderground v.1.15,2013-11-11 17:19:00,
2013-11-11 12:22:00,52.5,24.2,30.37,South,190,3.0,7.0,33,0.00,,,0.00,Wunderground v.1.15,2013-11-11 17:22:00,
2013-11-11 12:24:00,52.6,24.3,30.37,SSE,165,3.0,7.0,33,0.00,,,0.00,Wunderground v.1.15,2013-11-11 17:24:00,
2013-11-11 12:25:00,52.7,24.4,30.38,SSE,150,3.0,7.0,33,0.00,,,0.00,Wunderground v.1.15,2013-11-11 17:25:00,
2013-11-11 12:28:00,52.9,24.5,30.37,SE,131,3.0,7.0,33,0.00,,,0.00,Wunderground v.1.15,2013-11-11 17:28:00,
2013-11-11 12:29:00,53.0,24.6,30.37,SE,131,3.0,7.0,33,0.00,,,0.00,Wunderground v.1.15,2013-11-11 17:29:00,
2013-11-11 12:30:00,53.1,24.7,30.37,SSE,165,3.0,3.0,33,0.00,,,0.00,Wunderground v.1.15,2013-11-11 17:30:00,
2013-11-11 12:33:00,53.3,24.9,30.37,South,182,3.0,7.0,33,0.00,,,0.00,Wunderground v.1.15,2013-11-11 17:33:00,
2013-11-11 12:34:00,53.5,25.1,30.37,SSE,164,2.0,7.0,33,0.00,,,0.00,Wunderground v.1.15,2013-11-11 17:34:00,
2013-11-11 12:36:00,53.8,25.3,30.37,SSE,150,2.0,7.0,33,0.00,,,0.00,Wunderground v.1.15,2013-11-11 17:36:00,
2013-11-11 12:40:00,54.2,26.4,30.36,West,271,2.0,2.0,34,0.00,,,0.00,Wunderground v.1.15,2013-11-11 17:40:00,
2013-11-11 12:41:00,54.2,26.4,30.36,SSE,167,2.0,3.0,34,0.00,,,0.00,Wunderground v.1.15,2013-11-11 17:41:00,
2013-11-11 12:42:00,54.2,24.9,30.36,SSE,155,2.0,6.0,32,0.00,,,0.00,Wunderground v.1.15,2013-11-11 17:42:00,
2013-11-11 12:43:00,54.2,24.9,30.36,SE,145,3.0,7.0,32,0.00,,,0.00,Wunderground v.1.15,2013-11-11 17:43:00,
2013-11-11 12:45:00,54.1,25.6,30.36,SE,136,3.0,7.0,33,0.00,,,0.00,Wunderground v.1.15,2013-11-11 17:45:00,
2013-11-11 12:46:00,54.1,24.9,30.36,SE,141,4.0,7.0,32,0.00,,,0.00,Wunderground v.1.15,2013-11-11 17:46:00,
2013-11-11 12:48:00,54.1,25.6,30.36,ESE,115,4.0,7.0,33,0.00,,,0.00,Wunderground v.1.15,2013-11-11 17:48:00,
2013-11-11 12:49:00,54.0,24.8,30.36,SE,128,4.0,7.0,32,0.00,,,0.00,Wunderground v.1.15,2013-11-11 17:49:00,
2013-11-11 12:50:00,54.0,24.8,30.36,SE,128,4.0,4.0,32,0.00,,,0.00,Wunderground v.1.15,2013-11-11 17:50:00,
2013-11-11 12:51:00,54.0,24.8,30.36,SE,127,4.0,7.0,32,0.00,,,0.00,Wunderground v.1.15,2013-11-11 17:51:00,
2013-11-11 12:55:00,54.2,25.7,30.36,SE,143,3.0,8.0,33,0.00,,,0.00,Wunderground v.1.15,2013-11-11 17:55:00,
2013-11-11 12:57:00,54.2,26.4,30.35,SSE,157,3.0,8.0,34,0.00,,,0.00,Wunderground v.1.15,2013-11-11 17:57:00,
2013-11-11 12:59:00,54.4,25.9,30.35,SE,134,4.0,8.0,33,0.00,,,0.00,Wunderground v.1.15,2013-11-11 17:59:00,
2013-11-11 13:00:00,54.3,25.0,30.35,SE,144,4.0,7.0,32,0.00,,,0.00,Wunderground v.1.15,2013-11-11 18:00:00,
2013-11-11 13:03:00,54.2,25.7,30.35,SSE,161,5.0,7.0,33,0.00,,,0.00,Wunderground v.1.15,2013-11-11 18:03:00,
2013-11-11 13:06:00,54.2,27.1,30.34,SSE,154,4.0,7.0,35,0.00,,,0.00,Wunderground v.1.15,2013-11-11 18:06:00,
2013-11-11 13:08:00,54.4,26.6,30.34,ESE,121,5.0,7.0,34,0.00,,,0.00,Wunderground v.1.15,2013-11-11 18:08:00,
2013-11-11 13:09:00,54.5,26.7,30.34,SW,217,4.0,7.0,34,0.00,,,0.00,Wunderground v.1.15,2013-11-11 18:09:00,
2013-11-11 13:10:00,54.6,27.5,30.34,SW,236,4.0,7.0,35,0.00,,,0.00,Wunderground v.1.15,2013-11-11 18:10:00,
2013-11-11 13:12:00,54.7,28.2,30.34,SW,233,4.0,7.0,36,0.00,,,0.00,Wunderground v.1.15,2013-11-11 18:12:00,
2013-11-11 13:13:00,54.9,29.1,30.34,SSE,150,4.0,7.0,37,0.00,,,0.00,Wunderground v.1.15,2013-11-11 18:13:00,
2013-11-11 13:15:00,55.1,27.2,30.34,SSE,158,5.0,7.0,34,0.00,,,0.00,Wunderground v.1.15,2013-11-11 18:15:00,
2013-11-11 13:16:00,55.2,28.0,30.34,SSW,205,5.0,7.0,35,0.00,,,0.00,Wunderground v.1.15,2013-11-11 18:16:00,
2013-11-11 13:17:00,55.3,28.1,30.34,SSW,205,5.0,7.0,35,0.00,,,0.00,Wunderground v.1.15,2013-11-11 18:17:00,
2013-11-11 13:20:00,55.1,27.2,30.34,South,191,5.0,5.0,34,0.00,,,0.00,Wunderground v.1.15,2013-11-11 18:20:00,
2013-11-11 13:23:00,55.1,26.5,30.34,South,183,5.0,7.0,33,0.00,,,0.00,Wunderground v.1.15,2013-11-11 18:23:00,
2013-11-11 13:25:00,55.2,26.6,30.34,SSE,150,4.0,7.0,33,0.00,,,0.00,Wunderground v.1.15,2013-11-11 18:25:00,
2013-11-11 13:26:00,55.2,27.3,30.34,SSE,155,4.0,7.0,34,0.00,,,0.00,Wunderground v.1.15,2013-11-11 18:26:00,
2013-11-11 13:29:00,55.3,27.4,30.34,SSE,155,3.0,7.0,34,0.00,,,0.00,Wunderground v.1.15,2013-11-11 18:29:00,
2013-11-11 13:30:00,55.4,28.2,30.34,South,186,4.0,7.0,35,0.00,,,0.00,Wunderground v.1.15,2013-11-11 18:30:00,
2013-11-11 13:31:00,55.5,27.6,30.33,SSW,198,4.0,9.0,34,0.00,,,0.00,Wunderground v.1.15,2013-11-11 18:31:00,
2013-11-11 13:33:00,55.5,27.6,30.33,SW,229,5.0,9.0,34,0.00,,,0.00,Wunderground v.1.15,2013-11-11 18:33:00,
2013-11-11 13:35:00,55.3,27.4,30.33,SSW,213,5.0,9.0,34,0.00,,,0.00,Wunderground v.1.15,2013-11-11 18:35:00,
2013-11-11 13:36:00,55.4,27.5,30.33,SW,233,6.0,9.0,34,0.00,,,0.00,Wunderground v.1.15,2013-11-11 18:36:00,
2013-11-11 13:37:00,55.3,27.4,30.33,South,180,6.0,9.0,34,0.00,,,0.00,Wunderground v.1.15,2013-11-11 18:37:00,
2013-11-11 13:40:00,55.4,26.7,30.33,SSE,167,6.0,6.0,33,0.00,,,0.00,Wunderground v.1.15,2013-11-11 18:40:00,
2013-11-11 13:42:00,55.6,28.4,30.33,South,190,5.0,7.0,35,0.00,,,0.00,Wunderground v.1.15,2013-11-11 18:42:00,
2013-11-11 13:44:00,55.9,27.9,30.33,SE,146,4.0,9.0,34,0.00,,,0.00,Wunderground v.1.15,2013-11-11 18:44:00,
2013-11-11 13:45:00,56.0,28.0,30.33,SSE,156,4.0,9.0,34,0.00,,,0.00,Wunderground v.1.15,2013-11-11 18:45:00,
2013-11-11 13:46:00,55.9,26.4,30.33,SE,138,4.0,9.0,32,0.00,,,0.00,Wunderground v.1.15,2013-11-11 18:46:00,
2013-11-11 13:48:00,55.8,27.1,30.33,SE,128,4.0,9.0,33,0.00,,,0.00,Wunderground v.1.15,2013-11-11 18:48:00,
2013-11-11 13:51:00,56.0,28.0,30.32,SSE,168,4.0,7.0,34,0.00,,,0.00,Wunderground v.1.15,2013-11-11 18:51:00,
2013-11-11 13:52:00,56.1,28.1,30.32,South,181,5.0,7.0,34,0.00,,,0.00,Wunderground v.1.15,2013-11-11 18:52:00,
2013-11-11 13:53:00,56.2,28.2,30.32,South,170,5.0,7.0,34,0.00,,,0.00,Wunderground v.1.15,2013-11-11 18:53:00,
2013-11-11 13:54:00,56.3,29.0,30.32,SE,128,4.0,7.0,35,0.00,,,0.00,Wunderground v.1.15,2013-11-11 18:54:00,
2013-11-11 13:56:00,56.5,27.7,30.32,East,100,4.0,7.0,33,0.00,,,0.00,Wunderground v.1.15,2013-11-11 18:56:00,
2013-11-11 13:59:00,56.6,28.5,30.32,SSE,168,3.0,7.0,34,0.00,,,0.00,Wunderground v.1.15,2013-11-11 18:59:00,
2013-11-11 14:00:00,56.7,27.9,30.32,SSE,158,4.0,7.0,33,0.00,,,0.00,Wunderground v.1.15,2013-11-11 19:00:00,
2013-11-11 14:01:00,56.7,27.9,30.32,SE,144,4.0,7.0,33,0.00,,,0.00,Wunderground v.1.15,2013-11-11 19:01:00,
2013-11-11 14:04:00,56.6,28.5,30.32,South,169,4.0,7.0,34,0.00,,,0.00,Wunderground v.1.15,2013-11-11 19:04:00,
2013-11-11 14:05:00,56.6,27.8,30.32,SSE,149,4.0,7.0,33,0.00,,,0.00,Wunderground v.1.15,2013-11-11 19:05:00,
2013-11-11 14:06:00,56.6,27.0,30.32,South,180,4.0,7.0,32,0.00,,,0.00,Wunderground v.1.15,2013-11-11 19:06:00,
2013-11-11 14:10:00,56.7,28.6,30.32,South,181,4.0,7.0,34,0.00,,,0.00,Wunderground v.1.15,2013-11-11 19:10:00,
2013-11-11 14:11:00,56.7,27.1,30.32,SSW,204,4.0,7.0,32,0.00,,,0.00,Wunderground v.1.15,2013-11-11 19:11:00,
2013-11-11 14:12:00,56.7,27.1,30.32,South,173,4.0,8.0,32,0.00,,,0.00,Wunderground v.1.15,2013-11-11 19:12:00,
2013-11-11 14:13:00,56.7,27.1,30.32,SSE,163,4.0,8.0,32,0.00,,,0.00,Wunderground v.1.15,2013-11-11 19:13:00,
2013-11-11 14:17:00,56.9,28.1,30.32,South,186,4.0,8.0,33,0.00,,,0.00,Wunderground v.1.15,2013-11-11 19:17:00,
2013-11-11 14:18:00,57.0,28.1,30.32,SSE,163,4.0,8.0,33,0.00,,,0.00,Wunderground v.1.15,2013-11-11 19:18:00,
2013-11-11 14:21:00,57.1,27.5,30.32,SSE,168,4.0,7.0,32,0.00,,,0.00,Wunderground v.1.15,2013-11-11 19:21:00,
2013-11-11 14:24:00,57.2,28.3,30.32,SSE,150,4.0,7.0,33,0.00,,,0.00,Wunderground v.1.15,2013-11-11 19:24:00,
2013-11-11 14:25:00,57.2,27.6,30.32,South,170,3.0,7.0,32,0.00,,,0.00,Wunderground v.1.15,2013-11-11 19:25:00,
2013-11-11 14:30:00,57.4,27.7,30.32,South,169,4.0,7.0,32,0.00,,,0.00,Wunderground v.1.15,2013-11-11 19:30:00,
2013-11-11 14:31:00,57.4,27.7,30.32,SSE,147,4.0,7.0,32,0.00,,,0.00,Wunderground v.1.15,2013-11-11 19:31:00,
2013-11-11 14:32:00,57.3,27.7,30.32,SSE,156,4.0,7.0,32,0.00,,,0.00,Wunderground v.1.15,2013-11-11 19:32:00,
2013-11-11 14:33:00,57.2,27.6,30.32,South,174,4.0,7.0,32,0.00,,,0.00,Wunderground v.1.15,2013-11-11 19:33:00,
2013-11-11 14:37:00,57.2,27.6,30.32,SW,225,5.0,7.0,32,0.00,,,0.00,Wunderground v.1.15,2013-11-11 19:37:00,
2013-11-11 14:38:00,57.3,27.7,30.32,SSW,206,5.0,8.0,32,0.00,,,0.00,Wunderground v.1.15,2013-11-11 19:38:00,
2013-11-11 14:39:00,57.3,26.9,30.32,SSW,209,5.0,8.0,31,0.00,,,0.00,Wunderground v.1.15,2013-11-11 19:39:00,
2013-11-11 14:40:00,57.3,26.9,30.32,SSW,213,5.0,7.0,31,0.00,,,0.00,Wunderground v.1.15,2013-11-11 19:40:00,
2013-11-11 14:41:00,57.2,26.8,30.32,SW,215,5.0,7.0,31,0.00,,,0.00,Wunderground v.1.15,2013-11-11 19:41:00,
2013-11-11 14:43:00,57.3,28.4,30.31,South,182,5.0,7.0,33,0.00,,,0.00,Wunderground v.1.15,2013-11-11 19:43:00,
2013-11-11 14:44:00,57.4,28.5,30.31,South,182,4.0,7.0,33,0.00,,,0.00,Wunderground v.1.15,2013-11-11 19:44:00,
2013-11-11 14:46:00,57.6,27.2,30.31,South,182,3.0,7.0,31,0.00,,,0.00,Wunderground v.1.15,2013-11-11 19:46:00,
2013-11-11 14:48:00,57.8,27.3,30.31,SSE,150,3.0,7.0,31,0.00,,,0.00,Wunderground v.1.15,2013-11-11 19:48:00,
2013-11-11 14:49:00,57.8,27.3,30.31,SSE,152,2.0,7.0,31,0.00,,,0.00,Wunderground v.1.15,2013-11-11 19:49:00,
2013-11-11 14:50:00,57.9,28.2,30.31,South,189,2.0,7.0,32,0.00,,,0.00,Wunderground v.1.15,2013-11-11 19:50:00,
2013-11-11 14:54:00,58.0,26.7,30.31,SSW,213,3.0,7.0,30,0.00,,,0.00,Wunderground v.1.15,2013-11-11 19:54:00,
2013-11-11 14:55:00,58.0,27.5,30.31,SSE,155,4.0,7.0,31,0.00,,,0.00,Wunderground v.1.15,2013-11-11 19:55:00,
2013-11-11 14:58:00,57.8,27.3,30.31,SE,145,5.0,7.0,31,0.00,,,0.00,Wunderground v.1.15,2013-11-11 19:58:00,
2013-11-11 15:00:00,57.6,27.2,30.31,SE,127,5.0,5.0,31,0.00,,,0.00,Wunderground v.1.15,2013-11-11 20:00:00,
2013-11-11 15:03:00,57.5,27.1,30.31,SSE,156,5.0,7.0,31,0.00,,,0.00,Wunderground v.1.15,2013-11-11 20:03:00,
2013-11-11 15:05:00,57.3,26.9,30.31,SSE,153,5.0,7.0,31,0.00,,,0.00,Wunderground v.1.15,2013-11-11 20:05:00,
2013-11-11 15:06:00,57.3,26.9,30.31,SSE,150,4.0,7.0,31,0.00,,,0.00,Wunderground v.1.15,2013-11-11 20:06:00,
2013-11-11 15:08:00,57.3,27.7,30.31,South,173,4.0,7.0,32,0.00,,,0.00,Wunderground v.1.15,2013-11-11 20:08:00,
2013-11-11 15:10:00,57.4,27.7,30.31,South,190,5.0,5.0,32,0.00,,,0.00,Wunderground v.1.15,2013-11-11 20:10:00,
2013-11-11 15:12:00,57.5,27.8,30.30,South,188,5.0,9.0,32,0.00,,,0.00,Wunderground v.1.15,2013-11-11 20:12:00,
2013-11-11 15:15:00,57.5,29.3,30.30,South,184,5.0,9.0,34,0.00,,,0.00,Wunderground v.1.15,2013-11-11 20:15:00,
2013-11-11 15:17:00,57.6,27.9,30.30,SSE,154,5.0,9.0,32,0.00,,,0.00,Wunderground v.1.15,2013-11-11 20:17:00,
2013-11-11 15:19:00,57.7,28.0,30.31,SSE,158,5.0,9.0,32,0.00,,,0.00,Wunderground v.1.15,2013-11-11 20:19:00,
2013-11-11 15:20:00,57.7,27.2,30.31,South,186,5.0,5.0,31,0.00,,,0.00,Wunderground v.1.15,2013-11-11 20:20:00,
2013-11-11 15:21:00,57.8,28.9,30.30,SSE,166,5.0,6.0,33,0.00,,,0.00,Wunderground v.1.15,2013-11-11 20:21:00,
2013-11-11 15:22:00,57.7,27.2,30.30,South,171,5.0,7.0,31,0.00,,,0.00,Wunderground v.1.15,2013-11-11 20:22:00,
2013-11-11 15:26:00,57.5,27.1,30.30,SSW,193,5.0,8.0,31,0.00,,,0.00,Wunderground v.1.15,2013-11-11 20:26:00,
2013-11-11 15:27:00,57.5,27.8,30.31,SSE,162,5.0,8.0,32,0.00,,,0.00,Wunderground v.1.15,2013-11-11 20:27:00,
2013-11-11 15:28:00,57.5,27.8,30.30,SSE,162,5.0,8.0,32,0.00,,,0.00,Wunderground v.1.15,2013-11-11 20:28:00,
2013-11-11 15:31:00,57.6,28.7,30.30,South,171,5.0,7.0,33,0.00,,,0.00,Wunderground v.1.15,2013-11-11 20:31:00,
2013-11-11 15:32:00,57.6,27.9,30.30,SSW,200,5.0,7.0,32,0.00,,,0.00,Wunderground v.1.15,2013-11-11 20:32:00,
2013-11-11 15:33:00,57.7,27.2,30.30,SSW,202,5.0,7.0,31,0.00,,,0.00,Wunderground v.1.15,2013-11-11 20:33:00,
2013-11-11 15:35:00,57.7,28.0,30.31,SW,217,5.0,7.0,32,0.00,,,0.00,Wunderground v.1.15,2013-11-11 20:35:00,
2013-11-11 15:37:00,57.6,28.7,30.31,SSE,147,5.0,7.0,33,0.00,,,0.00,Wunderground v.1.15,2013-11-11 20:37:00,
2013-11-11 15:38:00,57.6,27.2,30.31,SSE,147,5.0,7.0,31,0.00,,,0.00,Wunderground v.1.15,2013-11-11 20:38:00,
2013-11-11 15:39:00,57.5,27.8,30.31,SSE,161,5.0,7.0,32,0.00,,,0.00,Wunderground v.1.15,2013-11-11 20:39:00,
2013-11-11 15:42:00,57.4,27.7,30.31,SSW,198,5.0,7.0,32,0.00,,,0.00,Wunderground v.1.15,2013-11-11 20:42:00,
2013-11-11 15:43:00,57.4,27.0,30.31,SSW,207,5.0,8.0,31,0.00,,,0.00,Wunderground v.1.15,2013-11-11 20:43:00,
2013-11-11 15:44:00,57.3,26.9,30.31,SW,214,6.0,8.0,31,0.00,,,0.00,Wunderground v.1.15,2013-11-11 20:44:00,
2013-11-11 15:45:00,57.3,26.9,30.31,South,180,6.0,8.0,31,0.00,,,0.00,Wunderground v.1.15,2013-11-11 20:45:00,
2013-11-11 15:48:00,57.1,27.5,30.31,SSE,152,6.0,8.0,32,0.00,,,0.00,Wunderground v.1.15,2013-11-11 20:48:00,
2013-11-11 15:50:00,57.0,27.4,30.31,SE,136,6.0,6.0,32,0.00,,,0.00,Wunderground v.1.15,2013-11-11 20:50:00,
2013-11-11 15:52:00,56.9,28.1,30.30,SSE,151,5.0,7.0,33,0.00,,,0.00,Wunderground v.1.15,2013-11-11 20:52:00,
2013-11-11 15:54:00,56.9,28.1,30.30,SSE,153,5.0,8.0,33,0.00,,,0.00,Wunderground v.1.15,2013-11-11 20:54:00,
2013-11-11 15:56:00,56.9,27.3,30.30,SSW,202,5.0,8.0,32,0.00,,,0.00,Wunderground v.1.15,2013-11-11 20:56:00,
2013-11-11 15:57:00,56.9,27.3,30.30,SE,143,5.0,8.0,32,0.00,,,0.00,Wunderground v.1.15,2013-11-11 20:57:00,
2013-11-11 15:59:00,56.8,28.0,30.30,SE,130,5.0,8.0,33,0.00,,,0.00,Wunderground v.1.15,2013-11-11 20:59:00,
2013-11-11 16:00:00,56.8,28.0,30.30,SSE,148,5.0,7.0,33,0.00,,,0.00,Wunderground v.1.15,2013-11-11 21:00:00,
2013-11-11 16:02:00,56.8,28.0,30.30,South,185,5.0,7.0,33,0.00,,,0.00,Wunderground v.1.15,2013-11-11 21:02:00,
2013-11-11 16:03:00,56.8,28.0,30.30,SSE,156,5.0,7.0,33,0.00,,,0.00,Wunderground v.1.15,2013-11-11 21:03:00,
2013-11-11 16:07:00,56.7,27.9,30.30,South,182,4.0,7.0,33,0.00,,,0.00,Wunderground v.1.15,2013-11-11 21:07:00,
2013-11-11 16:11:00,56.5,27.7,30.31,SSW,192,4.0,7.0,33,0.00,,,0.00,Wunderground v.1.15,2013-11-11 21:11:00,
2013-11-11 16:12:00,56.5,27.7,30.31,SSW,199,4.0,9.0,33,0.00,,,0.00,Wunderground v.1.15,2013-11-11 21:12:00,
2013-11-11 16:13:00,56.4,27.6,30.31,South,180,5.0,9.0,33,0.00,,,0.00,Wunderground v.1.15,2013-11-11 21:13:00,
2013-11-11 16:14:00,56.4,28.3,30.31,SSE,167,5.0,9.0,34,0.00,,,0.00,Wunderground v.1.15,2013-11-11 21:14:00,
2013-11-11 16:16:00,56.3,28.3,30.31,SSE,164,5.0,9.0,34,0.00,,,0.00,Wunderground v.1.15,2013-11-11 21:16:00,
2013-11-11 16:18:00,56.3,28.3,30.31,SSE,153,5.0,9.0,34,0.00,,,0.00,Wunderground v.1.15,2013-11-11 21:18:00,
2013-11-11 16:20:00,56.2,28.2,30.31,SSE,163,5.0,5.0,34,0.00,,,0.00,Wunderground v.1.15,2013-11-11 21:20:00,
2013-11-11 16:21:00,56.2,28.2,30.31,SE,139,5.0,7.0,34,0.00,,,0.00,Wunderground v.1.15,2013-11-11 21:21:00,
2013-11-11 16:22:00,56.2,28.2,30.31,SSE,165,5.0,7.0,34,0.00,,,0.00,Wunderground v.1.15,2013-11-11 21:22:00,
2013-11-11 16:25:00,56.2,27.4,30.31,SSW,210,4.0,8.0,33,0.00,,,0.00,Wunderground v.1.15,2013-11-11 21:25:00,
2013-11-11 16:27:00,56.1,29.5,30.31,SSE,156,4.0,8.0,36,0.00,,,0.00,Wunderground v.1.15,2013-11-11 21:27:00,
2013-11-11 16:28:00,56.1,28.8,30.31,SSE,159,4.0,8.0,35,0.00,,,0.00,Wunderground v.1.15,2013-11-11 21:28:00,
2013-11-11 16:31:00,56.0,28.7,30.31,SSE,151,4.0,7.0,35,0.00,,,0.00,Wunderground v.1.15,2013-11-11 21:31:00,
2013-11-11 16:32:00,56.0,28.7,30.31,SSE,153,5.0,7.0,35,0.00,,,0.00,Wunderground v.1.15,2013-11-11 21:32:00,
2013-11-11 16:33:00,55.9,27.9,30.31,SSE,153,5.0,7.0,34,0.00,,,0.00,Wunderground v.1.15,2013-11-11 21:33:00,
2013-11-11 16:36:00,55.8,27.8,30.31,SSW,194,4.0,7.0,34,0.00,,,0.00,Wunderground v.1.15,2013-11-11 21:36:00,
2013-11-11 16:39:00,55.7,28.4,30.30,SSE,149,4.0,7.0,35,0.00,,,0.00,Wunderground v.1.15,2013-11-11 21:39:00,
2013-11-11 16:41:00,55.7,29.8,30.31,SSW,192,4.0,7.0,37,0.00,,,0.00,Wunderground v.1.15,2013-11-11 21:41:00,
2013-11-11 16:42:00,55.6,29.0,30.31,South,180,4.0,7.0,36,0.00,,,0.00,Wunderground v.1.15,2013-11-11 21:42:00,
2013-11-11 16:44:00,55.6,28.4,30.31,SSW,192,3.0,7.0,35,0.00,,,0.00,Wunderground v.1.15,2013-11-11 21:44:00,
2013-11-11 16:45:00,55.5,28.3,30.31,South,181,3.0,7.0,35,0.00,,,0.00,Wunderground v.1.15,2013-11-11 21:45:00,
2013-11-11 16:47:00,55.5,28.3,30.31,South,182,3.0,7.0,35,0.00,,,0.00,Wunderground v.1.15,2013-11-11 21:47:00,
2013-11-11 16:48:00,55.5,29.0,30.30,SSE,163,3.0,7.0,36,0.00,,,0.00,Wunderground v.1.15,2013-11-11 21:48:00,
2013-11-11 16:50:00,55.4,28.9,30.30,SSE,156,3.0,3.0,36,0.00,,,0.00,Wunderground v.1.15,2013-11-11 21:50:00,
2013-11-11 16:51:00,55.3,28.8,30.30,SSE,156,3.0,7.0,36,0.00,,,0.00,Wunderground v.1.15,2013-11-11 21:51:00,
2013-11-11 16:52:00,55.2,28.7,30.30,SSE,148,3.0,7.0,36,0.00,,,0.00,Wunderground v.1.15,2013-11-11 21:52:00,
2013-11-11 16:57:00,54.9,28.4,30.30,South,182,3.0,7.0,36,0.00,,,0.00,Wunderground v.1.15,2013-11-11 21:57:00,
2013-11-11 16:58:00,54.9,28.4,30.30,SE,146,3.0,7.0,36,0.00,,,0.00,Wunderground v.1.15,2013-11-11 21:58:00,
2013-11-11 16:59:00,54.8,28.3,30.31,South,181,4.0,7.0,36,0.00,,,0.00,Wunderground v.1.15,2013-11-11 21:59:00,
2013-11-11 17:01:00,54.7,28.2,30.31,SSE,156,4.0,7.0,36,0.00,,,0.00,Wunderground v.1.15,2013-11-11 22:01:00,
2013-11-11 17:04:00,54.5,28.7,30.30,South,184,3.0,7.0,37,0.00,,,0.00,Wunderground v.1.15,2013-11-11 22:04:00,
2013-11-11 17:05:00,54.5,28.7,30.30,South,184,3.0,7.0,37,0.00,,,0.00,Wunderground v.1.15,2013-11-11 22:05:00,
2013-11-11 17:06:00,54.4,28.6,30.31,South,184,3.0,7.0,37,0.00,,,0.00,Wunderground v.1.15,2013-11-11 22:06:00,
2013-11-11 17:07:00,54.4,28.6,30.31,South,184,2.0,7.0,37,0.00,,,0.00,Wunderground v.1.15,2013-11-11 22:07:00,
2013-11-11 17:09:00,54.2,28.5,30.30,SSE,168,2.0,7.0,37,0.00,,,0.00,Wunderground v.1.15,2013-11-11 22:09:00,
2013-11-11 17:10:00,54.2,28.5,30.30,SSE,167,2.0,7.0,37,0.00,,,0.00,Wunderground v.1.15,2013-11-11 22:10:00,
2013-11-11 17:12:00,54.1,28.4,30.30,SSE,155,2.0,7.0,37,0.00,,,0.00,Wunderground v.1.15,2013-11-11 22:12:00,
2013-11-11 17:13:00,54.0,28.3,30.30,SSE,158,2.0,7.0,37,0.00,,,0.00,Wunderground v.1.15,2013-11-11 22:13:00,
2013-11-11 17:14:00,53.9,28.8,30.30,SSE,158,2.0,7.0,38,0.00,,,0.00,Wunderground v.1.15,2013-11-11 22:14:00,
2013-11-11 17:16:00,53.8,28.8,30.30,SSE,158,2.0,7.0,38,0.00,,,0.00,Wunderground v.1.15,2013-11-11 22:16:00,
2013-11-11 17:18:00,53.6,29.2,30.30,SSE,158,1.0,7.0,39,0.00,,,0.00,Wunderground v.1.15,2013-11-11 22:18:00,
2013-11-11 17:21:00,53.4,29.0,30.30,SSE,158,1.0,7.0,39,0.00,,,0.00,Wunderground v.1.15,2013-11-11 22:21:00,
2013-11-11 17:22:00,53.3,28.9,30.30,SSE,158,1.0,7.0,39,0.00,,,0.00,Wunderground v.1.15,2013-11-11 22:22:00,
2013-11-11 17:24:00,53.1,28.1,30.30,SE,126,0.0,7.0,38,0.00,,,0.00,Wunderground v.1.15,2013-11-11 22:24:00,
2013-11-11 17:27:00,52.9,28.0,30.30,ESE,114,1.0,7.0,38,0.00,,,0.00,Wunderground v.1.15,2013-11-11 22:27:00,
2013-11-11 17:28:00,52.8,28.5,30.30,ESE,114,1.0,7.0,39,0.00,,,0.00,Wunderground v.1.15,2013-11-11 22:28:00,
2013-11-11 17:29:00,52.8,28.5,30.30,ESE,114,1.0,7.0,39,0.00,,,0.00,Wunderground v.1.15,2013-11-11 22:29:00,
2013-11-11 17:32:00,52.5,28.2,30.30,ESE,114,1.0,7.0,39,0.00,,,0.00,Wunderground v.1.15,2013-11-11 22:32:00,
2013-11-11 17:34:00,52.4,28.1,30.30,ESE,114,1.0,7.0,39,0.00,,,0.00,Wunderground v.1.15,2013-11-11 22:34:00,
2013-11-11 17:35:00,52.3,28.1,30.30,ESE,114,1.0,7.0,39,0.00,,,0.00,Wunderground v.1.15,2013-11-11 22:35:00,
2013-11-11 17:38:00,52.1,27.9,30.30,ESE,114,1.0,7.0,39,0.00,,,0.00,Wunderground v.1.15,2013-11-11 22:38:00,
2013-11-11 17:39:00,52.1,27.9,30.30,ESE,114,1.0,7.0,39,0.00,,,0.00,Wunderground v.1.15,2013-11-11 22:39:00,
2013-11-11 17:40:00,52.0,27.8,30.30,ESE,114,1.0,1.0,39,0.00,,,0.00,Wunderground v.1.15,2013-11-11 22:40:00,
2013-11-11 17:41:00,51.9,27.7,30.30,ESE,114,1.0,7.0,39,0.00,,,0.00,Wunderground v.1.15,2013-11-11 22:41:00,
2013-11-11 17:44:00,51.8,28.2,30.30,ESE,114,0.0,7.0,40,0.00,,,0.00,Wunderground v.1.15,2013-11-11 22:44:00,
2013-11-11 17:46:00,51.7,28.1,30.30,ESE,114,0.0,7.0,40,0.00,,,0.00,Wunderground v.1.15,2013-11-11 22:46:00,
2013-11-11 17:47:00,51.6,28.0,30.30,ESE,114,0.0,7.0,40,0.00,,,0.00,Wunderground v.1.15,2013-11-11 22:47:00,
2013-11-11 17:50:00,51.3,28.4,30.30,ESE,114,0.0,7.0,41,0.00,,,0.00,Wunderground v.1.15,2013-11-11 22:50:00,
2013-11-11 17:51:00,51.2,28.3,30.30,ESE,114,1.0,7.0,41,0.00,,,0.00,Wunderground v.1.15,2013-11-11 22:51:00,
2013-11-11 17:54:00,50.8,28.5,30.30,ESE,114,1.0,7.0,42,0.00,,,0.00,Wunderground v.1.15,2013-11-11 22:54:00,
2013-11-11 17:55:00,50.6,28.9,30.30,ESE,114,1.0,7.0,43,0.00,,,0.00,Wunderground v.1.15,2013-11-11 22:55:00,
2013-11-11 17:56:00,50.4,28.7,30.30,ESE,114,1.0,7.0,43,0.00,,,0.00,Wunderground v.1.15,2013-11-11 22:56:00,
2013-11-11 17:58:00,50.1,29.0,30.31,ESE,114,0.0,7.0,44,0.00,,,0.00,Wunderground v.1.15,2013-11-11 22:58:00,
2013-11-11 18:02:00,49.5,29.0,30.31,ESE,114,0.0,7.0,45,0.00,,,0.00,Wunderground v.1.15,2013-11-11 23:02:00,
2013-11-11 18:04:00,49.2,29.3,30.31,ESE,114,0.0,7.0,46,0.00,,,0.00,Wunderground v.1.15,2013-11-11 23:04:00,
2013-11-11 18:06:00,48.9,28.5,30.31,ESE,114,0.0,7.0,45,0.00,,,0.00,Wunderground v.1.15,2013-11-11 23:06:00,
2013-11-11 18:07:00,48.8,28.9,30.31,ESE,114,0.0,7.0,46,0.00,,,0.00,Wunderground v.1.15,2013-11-11 23:07:00,
2013-11-11 18:11:00,48.4,29.1,30.31,ESE,114,0.0,7.0,47,0.00,,,0.00,Wunderground v.1.15,2013-11-11 23:11:00,
2013-11-11 18:12:00,48.3,29.0,30.31,ESE,114,0.0,7.0,47,0.00,,,0.00,Wunderground v.1.15,2013-11-11 23:12:00,
2013-11-11 18:13:00,48.2,28.9,30.31,ESE,114,0.0,7.0,47,0.00,,,0.00,Wunderground v.1.15,2013-11-11 23:13:00,
2013-11-11 18:15:00,48.0,29.2,30.31,ESE,114,0.0,7.0,48,0.00,,,0.00,Wunderground v.1.15,2013-11-11 23:15:00,
2013-11-11 18:17:00,47.7,28.9,30.31,ESE,114,0.0,7.0,48,0.00,,,0.00,Wunderground v.1.15,2013-11-11 23:17:00,
2013-11-11 18:19:00,47.5,29.3,30.31,ESE,114,0.0,7.0,49,0.00,,,0.00,Wunderground v.1.15,2013-11-11 23:19:00,
2013-11-11 18:22:00,47.2,29.0,30.31,ESE,114,0.0,7.0,49,0.00,,,0.00,Wunderground v.1.15,2013-11-11 23:22:00,
2013-11-11 18:23:00,47.1,30.4,30.31,ESE,114,0.0,7.0,52,0.00,,,0.00,Wunderground v.1.15,2013-11-11 23:23:00,
2013-11-11 18:24:00,47.0,29.8,30.31,ESE,114,0.0,7.0,51,0.00,,,0.00,Wunderground v.1.15,2013-11-11 23:24:00,
2013-11-11 18:27:00,46.9,30.6,30.31,ESE,114,0.0,7.0,53,0.00,,,0.00,Wunderground v.1.15,2013-11-11 23:27:00,
2013-11-11 18:28:00,46.9,29.7,30.31,ESE,114,0.0,7.0,51,0.00,,,0.00,Wunderground v.1.15,2013-11-11 23:28:00,
2013-11-11 18:29:00,46.8,29.6,30.31,ESE,114,0.0,7.0,51,0.00,,,0.00,Wunderground v.1.15,2013-11-11 23:29:00,
2013-11-11 18:32:00,46.7,29.5,30.31,ESE,114,0.0,7.0,51,0.00,,,0.00,Wunderground v.1.15,2013-11-11 23:32:00,
2013-11-11 18:33:00,46.5,30.3,30.31,ESE,114,0.0,7.0,53,0.00,,,0.00,Wunderground v.1.15,2013-11-11 23:33:00,
2013-11-11 18:34:00,46.4,29.7,30.31,ESE,114,0.0,7.0,52,0.00,,,0.00,Wunderground v.1.15,2013-11-11 23:34:00,
2013-11-11 18:36:00,46.2,30.0,30.31,ESE,114,0.0,7.0,53,0.00,,,0.00,Wunderground v.1.15,2013-11-11 23:36:00,
2013-11-11 18:37:00,46.1,29.4,30.31,ESE,114,0.0,7.0,52,0.00,,,0.00,Wunderground v.1.15,2013-11-11 23:37:00,
2013-11-11 18:38:00,46.0,29.8,30.31,ESE,114,0.0,7.0,53,0.00,,,0.00,Wunderground v.1.15,2013-11-11 23:38:00,
2013-11-11 18:40:00,45.7,30.0,30.31,ESE,114,0.0,7.0,54,0.00,,,0.00,Wunderground v.1.15,2013-11-11 23:40:00,
2013-11-11 18:41:00,45.6,29.4,30.31,ESE,114,0.0,7.0,53,0.00,,,0.00,Wunderground v.1.15,2013-11-11 23:41:00,
2013-11-11 18:42:00,45.4,29.3,30.31,ESE,114,0.0,7.0,53,0.00,,,0.00,Wunderground v.1.15,2013-11-11 23:42:00,
2013-11-11 18:44:00,45.3,29.2,30.31,ESE,114,0.0,7.0,53,0.00,,,0.00,Wunderground v.1.15,2013-11-11 23:44:00,
2013-11-11 18:46:00,45.1,29.4,30.31,ESE,114,0.0,7.0,54,0.00,,,0.00,Wunderground v.1.15,2013-11-11 23:46:00,
2013-11-11 18:48:00,45.0,29.8,30.31,ESE,114,0.0,7.0,55,0.00,,,0.00,Wunderground v.1.15,2013-11-11 23:48:00,
2013-11-11 18:49:00,44.9,30.1,30.31,ESE,114,0.0,7.0,56,0.00,,,0.00,Wunderground v.1.15,2013-11-11 23:49:00,
2013-11-11 18:50:00,44.8,30.5,30.31,ESE,114,0.0,7.0,57,0.00,,,0.00,Wunderground v.1.15,2013-11-11 23:50:00,
2013-11-11 18:53:00,44.3,30.9,30.31,ESE,114,0.0,7.0,59,0.00,,,0.00,Wunderground v.1.15,2013-11-11 23:53:00,
2013-11-11 18:56:00,43.9,29.6,30.31,ESE,114,0.0,7.0,57,0.00,,,0.00,Wunderground v.1.15,2013-11-11 23:56:00,
2013-11-11 18:57:00,43.7,29.9,30.31,ESE,114,0.0,7.0,58,0.00,,,0.00,Wunderground v.1.15,2013-11-11 23:57:00,
2013-11-11 18:58:00,43.6,29.8,30.31,ESE,114,0.0,7.0,58,0.00,,,0.00,Wunderground v.1.15,2013-11-11 23:58:00,
2013-11-11 19:00:00,43.4,30.4,30.31,ESE,114,0.0,7.0,60,0.00,,,0.00,Wunderground v.1.15,2013-11-12 00:00:00,
2013-11-11 19:01:00,43.3,30.3,30.31,ESE,114,0.0,7.0,60,0.00,,,0.00,Wunderground v.1.15,2013-11-12 00:01:00,
2013-11-11 19:03:00,43.0,30.5,30.31,ESE,114,0.0,7.0,61,0.00,,,0.00,Wunderground v.1.15,2013-11-12 00:03:00,
2013-11-11 19:06:00,42.6,31.3,30.31,ESE,114,0.0,7.0,64,0.00,,,0.00,Wunderground v.1.15,2013-11-12 00:06:00,
2013-11-11 19:07:00,42.5,30.4,30.31,ESE,114,0.0,7.0,62,0.00,,,0.00,Wunderground v.1.15,2013-11-12 00:07:00,
2013-11-11 19:10:00,42.2,30.9,30.31,ESE,114,0.0,7.0,64,0.00,,,0.00,Wunderground v.1.15,2013-11-12 00:10:00,
2013-11-11 19:11:00,42.2,30.1,30.31,ESE,114,0.0,7.0,62,0.00,,,0.00,Wunderground v.1.15,2013-11-12 00:11:00,
2013-11-11 19:12:00,42.2,29.7,30.31,ESE,114,0.0,7.0,61,0.00,,,0.00,Wunderground v.1.15,2013-11-12 00:12:00,
2013-11-11 19:14:00,42.1,29.6,30.31,ESE,114,0.0,7.0,61,0.00,,,0.00,Wunderground v.1.15,2013-11-12 00:14:00,
2013-11-11 19:15:00,42.1,29.2,30.31,ESE,114,0.0,7.0,60,0.00,,,0.00,Wunderground v.1.15,2013-11-12 00:15:00,
2013-11-11 19:17:00,42.1,30.4,30.31,ESE,114,0.0,7.0,63,0.00,,,0.00,Wunderground v.1.15,2013-11-12 00:17:00,
2013-11-11 19:20:00,42.0,30.3,30.31,ESE,114,0.0,7.0,63,0.00,,,0.00,Wunderground v.1.15,2013-11-12 00:20:00,
2013-11-11 19:21:00,42.0,29.9,30.31,ESE,114,0.0,7.0,62,0.00,,,0.00,Wunderground v.1.15,2013-11-12 00:21:00,
2013-11-11 19:22:00,42.0,29.9,30.31,ESE,114,0.0,7.0,62,0.00,,,0.00,Wunderground v.1.15,2013-11-12 00:22:00,
2013-11-11 19:25:00,41.9,29.8,30.31,ESE,114,0.0,7.0,62,0.00,,,0.00,Wunderground v.1.15,2013-11-12 00:25:00,
2013-11-11 19:26:00,41.9,29.8,30.31,ESE,114,0.0,7.0,62,0.00,,,0.00,Wunderground v.1.15,2013-11-12 00:26:00,
2013-11-11 19:27:00,41.8,30.1,30.31,ESE,114,0.0,7.0,63,0.00,,,0.00,Wunderground v.1.15,2013-11-12 00:27:00,
2013-11-11 19:28:00,41.8,30.5,30.31,ESE,114,0.0,7.0,64,0.00,,,0.00,Wunderground v.1.15,2013-11-12 00:28:00,
2013-11-11 19:31:00,41.6,30.7,30.31,ESE,114,0.0,7.0,65,0.00,,,0.00,Wunderground v.1.15,2013-11-12 00:31:00,
2013-11-11 19:33:00,41.5,31.0,30.31,ESE,114,0.0,7.0,66,0.00,,,0.00,Wunderground v.1.15,2013-11-12 00:33:00,
2013-11-11 19:34:00,41.5,30.6,30.31,ESE,114,0.0,7.0,65,0.00,,,0.00,Wunderground v.1.15,2013-11-12 00:34:00,
2013-11-11 19:35:00,41.5,32.4,30.31,ESE,114,0.0,7.0,70,0.00,,,0.00,Wunderground v.1.15,2013-11-12 00:35:00,
2013-11-11 19:39:00,41.2,30.3,30.31,ESE,114,0.0,7.0,65,0.00,,,0.00,Wunderground v.1.15,2013-11-12 00:39:00,
2013-11-11 19:40:00,41.2,30.7,30.31,ESE,114,0.0,7.0,66,0.00,,,0.00,Wunderground v.1.15,2013-11-12 00:40:00,
2013-11-11 19:44:00,40.8,29.9,30.31,ESE,114,0.0,7.0,65,0.00,,,0.00,Wunderground v.1.15,2013-11-12 00:44:00,
2013-11-11 19:45:00,40.7,30.2,30.31,ESE,114,0.0,7.0,66,0.00,,,0.00,Wunderground v.1.15,2013-11-12 00:45:00,
2013-11-11 19:47:00,40.6,30.1,30.31,ESE,114,0.0,7.0,66,0.00,,,0.00,Wunderground v.1.15,2013-11-12 00:47:00,
2013-11-11 19:48:00,40.5,30.4,30.31,ESE,114,0.0,7.0,67,0.00,,,0.00,Wunderground v.1.15,2013-11-12 00:48:00,
2013-11-11 19:50:00,40.4,31.0,30.31,ESE,114,0.0,7.0,69,0.00,,,0.00,Wunderground v.1.15,2013-11-12 00:50:00,
2013-11-11 19:53:00,40.2,31.5,30.31,ESE,114,0.0,7.0,71,0.00,,,0.00,Wunderground v.1.15,2013-11-12 00:53:00,
2013-11-11 19:55:00,40.1,31.4,30.31,ESE,114,0.0,7.0,71,0.00,,,0.00,Wunderground v.1.15,2013-11-12 00:55:00,
2013-11-11 19:57:00,40.0,32.4,30.31,ESE,114,0.0,7.0,74,0.00,,,0.00,Wunderground v.1.15,2013-11-12 00:57:00,
2013-11-11 19:58:00,40.0,32.0,30.31,ESE,114,0.0,7.0,73,0.00,,,0.00,Wunderground v.1.15,2013-11-12 00:58:00,
2013-11-11 20:01:00,39.8,30.8,30.31,ESE,114,0.0,7.0,70,0.00,,,0.00,Wunderground v.1.15,2013-11-12 01:01:00,
2013-11-11 20:02:00,39.8,31.5,30.31,ESE,114,0.0,7.0,72,0.00,,,0.00,Wunderground v.1.15,2013-11-12 01:02:00,
2013-11-11 20:05:00,39.5,30.5,30.31,ESE,114,0.0,7.0,70,0.00,,,0.00,Wunderground v.1.15,2013-11-12 01:05:00,
2013-11-11 20:06:00,39.4,30.4,30.31,ESE,114,0.0,7.0,70,0.00,,,0.00,Wunderground v.1.15,2013-11-12 01:06:00,
2013-11-11 20:07:00,39.3,30.3,30.31,ESE,114,0.0,7.0,70,0.00,,,0.00,Wunderground v.1.15,2013-11-12 01:07:00,
2013-11-11 20:09:00,39.2,30.2,30.31,ESE,114,0.0,7.0,70,0.00,,,0.00,Wunderground v.1.15,2013-11-12 01:09:00,
2013-11-11 20:12:00,39.0,30.7,30.31,ESE,114,0.0,7.0,72,0.00,,,0.00,Wunderground v.1.15,2013-11-12 01:12:00,
2013-11-11 20:13:00,38.9,30.6,30.31,ESE,114,0.0,7.0,72,0.00,,,0.00,Wunderground v.1.15,2013-11-12 01:13:00,
2013-11-11 20:15:00,38.8,30.9,30.31,ESE,114,0.0,7.0,73,0.00,,,0.00,Wunderground v.1.15,2013-11-12 01:15:00,
2013-11-11 20:16:00,38.8,30.2,30.31,ESE,114,0.0,7.0,71,0.00,,,0.00,Wunderground v.1.15,2013-11-12 01:16:00,
2013-11-11 20:18:00,38.8,31.6,30.30,ESE,114,0.0,7.0,75,0.00,,,0.00,Wunderground v.1.15,2013-11-12 01:18:00,
2013-11-11 20:20:00,38.8,31.9,30.31,ESE,114,0.0,7.0,76,0.00,,,0.00,Wunderground v.1.15,2013-11-12 01:20:00,
2013-11-11 20:21:00,38.8,31.6,30.31,ESE,114,0.0,7.0,75,0.00,,,0.00,Wunderground v.1.15,2013-11-12 01:21:00,
2013-11-11 20:22:00,38.8,30.9,30.31,ESE,114,0.0,7.0,73,0.00,,,0.00,Wunderground v.1.15,2013-11-12 01:22:00,
2013-11-11 20:25:00,38.7,30.4,30.31,ESE,114,0.0,7.0,72,0.00,,,0.00,Wunderground v.1.15,2013-11-12 01:25:00,
2013-11-11 20:27:00,38.7,30.4,30.31,ESE,114,0.0,7.0,72,0.00,,,0.00,Wunderground v.1.15,2013-11-12 01:27:00,
2013-11-11 20:28:00,38.6,30.4,30.31,ESE,114,0.0,7.0,72,0.00,,,0.00,Wunderground v.1.15,2013-11-12 01:28:00,
2013-11-11 20:29:00,38.6,30.4,30.31,ESE,114,0.0,7.0,72,0.00,,,0.00,Wunderground v.1.15,2013-11-12 01:29:00,
2013-11-11 20:30:00,38.6,30.0,30.31,ESE,114,0.0,7.0,71,0.00,,,0.00,Wunderground v.1.15,2013-11-12 01:30:00,
2013-11-11 20:32:00,38.4,30.2,30.31,ESE,114,0.0,7.0,72,0.00,,,0.00,Wunderground v.1.15,2013-11-12 01:32:00,
2013-11-11 20:35:00,38.2,30.6,30.31,ESE,114,0.0,7.0,74,0.00,,,0.00,Wunderground v.1.15,2013-11-12 01:35:00,
2013-11-11 20:37:00,38.2,30.6,30.31,ESE,114,0.0,7.0,74,0.00,,,0.00,Wunderground v.1.15,2013-11-12 01:37:00,
2013-11-11 20:38:00,38.1,30.9,30.31,ESE,114,0.0,7.0,75,0.00,,,0.00,Wunderground v.1.15,2013-11-12 01:38:00,
2013-11-11 20:41:00,37.9,31.0,30.31,ESE,114,0.0,7.0,76,0.00,,,0.00,Wunderground v.1.15,2013-11-12 01:41:00,
2013-11-11 20:42:00,37.9,31.7,30.31,ESE,114,0.0,7.0,78,0.00,,,0.00,Wunderground v.1.15,2013-11-12 01:42:00,
2013-11-11 20:46:00,37.7,31.1,30.31,ESE,114,0.0,7.0,77,0.00,,,0.00,Wunderground v.1.15,2013-11-12 01:46:00,
2013-11-11 20:47:00,37.7,31.1,30.31,ESE,114,0.0,7.0,77,0.00,,,0.00,Wunderground v.1.15,2013-11-12 01:47:00,
2013-11-11 20:48:00,37.7,31.1,30.31,ESE,114,0.0,7.0,77,0.00,,,0.00,Wunderground v.1.15,2013-11-12 01:48:00,
2013-11-11 20:52:00,37.6,31.7,30.31,ESE,114,0.0,7.0,79,0.00,,,0.00,Wunderground v.1.15,2013-11-12 01:52:00,
2013-11-11 20:53:00,37.6,31.7,30.31,ESE,114,0.0,7.0,79,0.00,,,0.00,Wunderground v.1.15,2013-11-12 01:53:00,
2013-11-11 20:55:00,37.5,31.3,30.31,ESE,114,0.0,7.0,78,0.00,,,0.00,Wunderground v.1.15,2013-11-12 01:55:00,
2013-11-11 20:57:00,37.4,30.8,30.31,ESE,114,0.0,7.0,77,0.00,,,0.00,Wunderground v.1.15,2013-11-12 01:57:00,
2013-11-11 20:59:00,37.3,30.4,30.31,ESE,114,0.0,7.0,76,0.00,,,0.00,Wunderground v.1.15,2013-11-12 01:59:00,
2013-11-11 21:00:00,37.3,30.4,30.31,ESE,114,0.0,7.0,76,0.00,,,0.00,Wunderground v.1.15,2013-11-12 02:00:00,
2013-11-11 21:01:00,37.3,30.4,30.31,ESE,114,0.0,7.0,76,0.00,,,0.00,Wunderground v.1.15,2013-11-12 02:01:00,
2013-11-11 21:04:00,37.2,30.3,30.31,ESE,114,0.0,7.0,76,0.00,,,0.00,Wunderground v.1.15,2013-11-12 02:04:00,
2013-11-11 21:05:00,37.1,30.2,30.31,ESE,114,0.0,7.0,76,0.00,,,0.00,Wunderground v.1.15,2013-11-12 02:05:00,
2013-11-11 21:06:00,37.1,30.6,30.31,ESE,114,0.0,7.0,77,0.00,,,0.00,Wunderground v.1.15,2013-11-12 02:06:00,
2013-11-11 21:07:00,37.1,30.6,30.31,ESE,114,0.0,7.0,77,0.00,,,0.00,Wunderground v.1.15,2013-11-12 02:07:00,
2013-11-11 21:10:00,37.1,30.6,30.31,ESE,114,0.0,7.0,77,0.00,,,0.00,Wunderground v.1.15,2013-11-12 02:10:00,
2013-11-11 21:13:00,37.0,30.5,30.31,ESE,114,0.0,7.0,77,0.00,,,0.00,Wunderground v.1.15,2013-11-12 02:13:00,
2013-11-11 21:16:00,36.9,30.4,30.31,ESE,114,0.0,7.0,77,0.00,,,0.00,Wunderground v.1.15,2013-11-12 02:16:00,
2013-11-11 21:17:00,36.9,30.4,30.31,ESE,114,0.0,7.0,77,0.00,,,0.00,Wunderground v.1.15,2013-11-12 02:17:00,
2013-11-11 21:18:00,36.8,30.9,30.31,ESE,114,0.0,7.0,79,0.00,,,0.00,Wunderground v.1.15,2013-11-12 02:18:00,
2013-11-11 21:20:00,36.8,30.6,30.31,ESE,114,0.0,7.0,78,0.00,,,0.00,Wunderground v.1.15,2013-11-12 02:20:00,
2013-11-11 21:21:00,36.8,31.2,30.31,ESE,114,0.0,7.0,80,0.00,,,0.00,Wunderground v.1.15,2013-11-12 02:21:00,
2013-11-11 21:24:00,36.7,30.8,30.31,ESE,114,0.0,7.0,79,0.00,,,0.00,Wunderground v.1.15,2013-11-12 02:24:00,
2013-11-11 21:25:00,36.6,30.7,30.31,ESE,114,0.0,7.0,79,0.00,,,0.00,Wunderground v.1.15,2013-11-12 02:25:00,
2013-11-11 21:26:00,36.5,30.9,30.31,ESE,114,0.0,7.0,80,0.00,,,0.00,Wunderground v.1.15,2013-11-12 02:26:00,
2013-11-11 21:28:00,36.5,30.6,30.31,ESE,114,0.0,7.0,79,0.00,,,0.00,Wunderground v.1.15,2013-11-12 02:28:00,
2013-11-11 21:30:00,36.4,30.5,30.31,ESE,114,0.0,7.0,79,0.00,,,0.00,Wunderground v.1.15,2013-11-12 02:30:00,
2013-11-11 21:32:00,36.3,30.4,30.31,ESE,114,0.0,7.0,79,0.00,,,0.00,Wunderground v.1.15,2013-11-12 02:32:00,
2013-11-11 21:33:00,36.3,30.4,30.31,ESE,114,0.0,7.0,79,0.00,,,0.00,Wunderground v.1.15,2013-11-12 02:33:00,
2013-11-11 21:35:00,36.2,30.6,30.31,ESE,114,0.0,7.0,80,0.00,,,0.00,Wunderground v.1.15,2013-11-12 02:35:00,
2013-11-11 21:37:00,36.1,30.5,30.31,ESE,114,0.0,7.0,80,0.00,,,0.00,Wunderground v.1.15,2013-11-12 02:37:00,
2013-11-11 21:39:00,36.0,30.4,30.31,ESE,114,0.0,7.0,80,0.00,,,0.00,Wunderground v.1.15,2013-11-12 02:39:00,
2013-11-11 21:40:00,36.0,30.1,30.31,ESE,114,0.0,7.0,79,0.00,,,0.00,Wunderground v.1.15,2013-11-12 02:40:00,
2013-11-11 21:42:00,35.9,30.0,30.31,ESE,114,0.0,7.0,79,0.00,,,0.00,Wunderground v.1.15,2013-11-12 02:42:00,
2013-11-11 21:44:00,35.8,29.9,30.31,ESE,114,0.0,7.0,79,0.00,,,0.00,Wunderground v.1.15,2013-11-12 02:44:00,
2013-11-11 21:45:00,35.7,29.8,30.31,ESE,114,0.0,7.0,79,0.00,,,0.00,Wunderground v.1.15,2013-11-12 02:45:00,
2013-11-11 21:46:00,35.7,29.8,30.31,ESE,114,0.0,7.0,79,0.00,,,0.00,Wunderground v.1.15,2013-11-12 02:46:00,
2013-11-11 21:47:00,35.6,30.0,30.31,ESE,114,0.0,7.0,80,0.00,,,0.00,Wunderground v.1.15,2013-11-12 02:47:00,
2013-11-11 21:51:00,35.5,30.2,30.31,ESE,114,0.0,7.0,81,0.00,,,0.00,Wunderground v.1.15,2013-11-12 02:51:00,
2013-11-11 21:52:00,35.5,30.5,30.31,ESE,114,0.0,7.0,82,0.00,,,0.00,Wunderground v.1.15,2013-11-12 02:52:00,
2013-11-11 21:53:00,35.5,30.5,30.31,ESE,114,0.0,7.0,82,0.00,,,0.00,Wunderground v.1.15,2013-11-12 02:53:00,
2013-11-11 21:56:00,35.4,30.5,30.31,ESE,114,0.0,7.0,82,0.00,,,0.00,Wunderground v.1.15,2013-11-12 02:56:00,
2013-11-11 21:57:00,35.4,30.8,30.31,ESE,114,0.0,7.0,83,0.00,,,0.00,Wunderground v.1.15,2013-11-12 02:57:00,
2013-11-11 21:58:00,35.4,30.5,30.31,ESE,114,0.0,7.0,82,0.00,,,0.00,Wunderground v.1.15,2013-11-12 02:58:00,
2013-11-11 22:03:00,35.4,31.3,30.31,ESE,114,0.0,7.0,85,0.00,,,0.00,Wunderground v.1.15,2013-11-12 03:03:00,
2013-11-11 22:04:00,35.5,31.7,30.31,ESE,114,0.0,7.0,86,0.00,,,0.00,Wunderground v.1.15,2013-11-12 03:04:00,
2013-11-11 22:05:00,35.5,31.7,30.31,ESE,114,0.0,7.0,86,0.00,,,0.00,Wunderground v.1.15,2013-11-12 03:05:00,
2013-11-11 22:06:00,35.5,31.1,30.31,ESE,114,0.0,7.0,84,0.00,,,0.00,Wunderground v.1.15,2013-11-12 03:06:00,
2013-11-11 22:09:00,35.4,30.5,30.31,ESE,114,0.0,7.0,82,0.00,,,0.00,Wunderground v.1.15,2013-11-12 03:09:00,
2013-11-11 22:11:00,35.3,30.4,30.31,ESE,114,0.0,7.0,82,0.00,,,0.00,Wunderground v.1.15,2013-11-12 03:11:00,
2013-11-11 22:12:00,35.3,30.4,30.32,ESE,114,0.0,7.0,82,0.00,,,0.00,Wunderground v.1.15,2013-11-12 03:12:00,
2013-11-11 22:14:00,35.3,30.9,30.32,ESE,114,0.0,7.0,84,0.00,,,0.00,Wunderground v.1.15,2013-11-12 03:14:00,
2013-11-11 22:15:00,35.3,30.9,30.32,ESE,114,0.0,7.0,84,0.00,,,0.00,Wunderground v.1.15,2013-11-12 03:15:00,
2013-11-11 22:16:00,35.3,30.9,30.32,ESE,114,0.0,7.0,84,0.00,,,0.00,Wunderground v.1.15,2013-11-12 03:16:00,
2013-11-11 22:17:00,35.3,31.2,30.31,ESE,114,0.0,7.0,85,0.00,,,0.00,Wunderground v.1.15,2013-11-12 03:17:00,
2013-11-11 22:19:00,35.3,31.2,30.31,ESE,114,0.0,7.0,85,0.00,,,0.00,Wunderground v.1.15,2013-11-12 03:19:00,
2013-11-11 22:20:00,35.2,31.1,30.32,ESE,114,0.0,7.0,85,0.00,,,0.00,Wunderground v.1.15,2013-11-12 03:20:00,
2013-11-11 22:21:00,35.2,30.9,30.32,ESE,114,0.0,7.0,84,0.00,,,0.00,Wunderground v.1.15,2013-11-12 03:21:00,
2013-11-11 22:24:00,35.1,31.0,30.31,ESE,114,0.0,7.0,85,0.00,,,0.00,Wunderground v.1.15,2013-11-12 03:24:00,
2013-11-11 22:27:00,35.1,31.3,30.31,ESE,114,0.0,7.0,86,0.00,,,0.00,Wunderground v.1.15,2013-11-12 03:27:00,
2013-11-11 22:28:00,35.1,31.0,30.31,ESE,114,0.0,7.0,85,0.00,,,0.00,Wunderground v.1.15,2013-11-12 03:28:00,
2013-11-11 22:29:00,35.0,30.9,30.31,ESE,114,0.0,7.0,85,0.00,,,0.00,Wunderground v.1.15,2013-11-12 03:29:00,
2013-11-11 22:35:00,34.8,30.5,30.31,ESE,114,0.0,7.0,84,0.00,,,0.00,Wunderground v.1.15,2013-11-12 03:35:00,
2013-11-11 22:36:00,34.8,30.5,30.31,ESE,114,0.0,7.0,84,0.00,,,0.00,Wunderground v.1.15,2013-11-12 03:36:00,
2013-11-11 22:37:00,34.8,30.5,30.31,ESE,114,0.0,7.0,84,0.00,,,0.00,Wunderground v.1.15,2013-11-12 03:37:00,
2013-11-11 22:38:00,34.8,30.5,30.31,ESE,114,0.0,7.0,84,0.00,,,0.00,Wunderground v.1.15,2013-11-12 03:38:00,
2013-11-11 22:40:00,34.7,30.1,30.31,ESE,114,0.0,7.0,83,0.00,,,0.00,Wunderground v.1.15,2013-11-12 03:40:00,
2013-11-11 22:42:00,34.6,30.0,30.31,ESE,114,0.0,7.0,83,0.00,,,0.00,Wunderground v.1.15,2013-11-12 03:42:00,
2013-11-11 22:45:00,34.4,29.8,30.31,ESE,114,0.0,7.0,83,0.00,,,0.00,Wunderground v.1.15,2013-11-12 03:45:00,
2013-11-11 22:46:00,34.4,29.8,30.31,ESE,114,0.0,7.0,83,0.00,,,0.00,Wunderground v.1.15,2013-11-12 03:46:00,
2013-11-11 22:49:00,34.2,29.6,30.31,ESE,114,0.0,7.0,83,0.00,,,0.00,Wunderground v.1.15,2013-11-12 03:49:00,
2013-11-11 22:50:00,34.2,29.6,30.31,ESE,114,0.0,7.0,83,0.00,,,0.00,Wunderground v.1.15,2013-11-12 03:50:00,
2013-11-11 22:51:00,34.2,29.6,30.31,ESE,114,0.0,7.0,83,0.00,,,0.00,Wunderground v.1.15,2013-11-12 03:51:00,
2013-11-11 22:52:00,34.1,29.5,30.31,ESE,114,0.0,7.0,83,0.00,,,0.00,Wunderground v.1.15,2013-11-12 03:52:00,
2013-11-11 22:53:00,34.1,29.5,30.31,ESE,114,0.0,7.0,83,0.00,,,0.00,Wunderground v.1.15,2013-11-12 03:53:00,
2013-11-11 22:54:00,34.0,29.4,30.31,ESE,114,0.0,7.0,83,0.00,,,0.00,Wunderground v.1.15,2013-11-12 03:54:00,
2013-11-11 22:57:00,33.8,29.5,30.31,ESE,114,0.0,7.0,84,0.00,,,0.00,Wunderground v.1.15,2013-11-12 03:57:00,
2013-11-11 22:58:00,33.8,29.8,30.31,ESE,114,0.0,7.0,85,0.00,,,0.00,Wunderground v.1.15,2013-11-12 03:58:00,
2013-11-11 22:59:00,33.8,29.8,30.31,ESE,114,0.0,7.0,85,0.00,,,0.00,Wunderground v.1.15,2013-11-12 03:59:00,
2013-11-11 23:03:00,33.6,29.9,30.31,ESE,114,0.0,0.0,86,0.00,,,0.00,Wunderground v.1.15,2013-11-12 04:03:00,
2013-11-11 23:04:00,33.6,29.9,30.31,ESE,114,0.0,0.0,86,0.00,,,0.00,Wunderground v.1.15,2013-11-12 04:04:00,
2013-11-11 23:05:00,33.6,30.1,30.31,ESE,114,0.0,0.0,87,0.00,,,0.00,Wunderground v.1.15,2013-11-12 04:05:00,
2013-11-11 23:07:00,33.7,30.5,30.31,ESE,114,0.0,0.0,88,0.00,,,0.00,Wunderground v.1.15,2013-11-12 04:07:00,
2013-11-11 23:10:00,33.7,30.2,30.30,ESE,114,0.0,0.0,87,0.00,,,0.00,Wunderground v.1.15,2013-11-12 04:10:00,
2013-11-11 23:11:00,33.7,30.2,30.30,ESE,114,0.0,0.0,87,0.00,,,0.00,Wunderground v.1.15,2013-11-12 04:11:00,
2013-11-11 23:12:00,33.8,30.3,30.30,ESE,114,0.0,0.0,87,0.00,,,0.00,Wunderground v.1.15,2013-11-12 04:12:00,
2013-11-11 23:14:00,33.8,30.1,30.30,ESE,114,0.0,0.0,86,0.00,,,0.00,Wunderground v.1.15,2013-11-12 04:14:00,
2013-11-11 23:15:00,33.8,30.1,30.30,ESE,114,0.0,0.0,86,0.00,,,0.00,Wunderground v.1.15,2013-11-12 04:15:00,
2013-11-11 23:16:00,33.8,30.1,30.30,ESE,114,0.0,0.0,86,0.00,,,0.00,Wunderground v.1.15,2013-11-12 04:16:00,
2013-11-11 23:17:00,33.8,29.8,30.30,ESE,114,0.0,0.0,85,0.00,,,0.00,Wunderground v.1.15,2013-11-12 04:17:00,
2013-11-11 23:18:00,33.8,29.8,30.30,ESE,114,0.0,0.0,85,0.00,,,0.00,Wunderground v.1.15,2013-11-12 04:18:00,
2013-11-11 23:19:00,33.8,29.8,30.30,ESE,114,0.0,0.0,85,0.00,,,0.00,Wunderground v.1.15,2013-11-12 04:19:00,
2013-11-11 23:21:00,33.8,29.8,30.29,ESE,114,0.0,0.0,85,0.00,,,0.00,Wunderground v.1.15,2013-11-12 04:21:00,
2013-11-11 23:22:00,33.8,29.8,30.29,ESE,114,0.0,0.0,85,0.00,,,0.00,Wunderground v.1.15,2013-11-12 04:22:00,
2013-11-11 23:23:00,33.8,29.8,30.29,ESE,114,0.0,0.0,85,0.00,,,0.00,Wunderground v.1.15,2013-11-12 04:23:00,
2013-11-11 23:24:00,33.8,29.8,30.29,ESE,114,0.0,1.0,85,0.00,,,0.00,Wunderground v.1.15,2013-11-12 04:24:00,
2013-11-11 23:26:00,33.8,29.8,30.29,ESE,114,0.0,1.0,85,0.00,,,0.00,Wunderground v.1.15,2013-11-12 04:26:00,
2013-11-11 23:27:00,33.7,29.7,30.29,ESE,114,0.0,1.0,85,0.00,,,0.00,Wunderground v.1.15,2013-11-12 04:27:00,
2013-11-11 23:28:00,33.7,29.7,30.29,ESE,114,0.0,1.0,85,0.00,,,0.00,Wunderground v.1.15,2013-11-12 04:28:00,
2013-11-11 23:31:00,33.4,29.4,30.28,ESE,114,0.0,0.0,85,0.00,,,0.00,Wunderground v.1.15,2013-11-12 04:31:00,
2013-11-11 23:32:00,33.3,29.3,30.28,ESE,114,0.0,0.0,85,0.00,,,0.00,Wunderground v.1.15,2013-11-12 04:32:00,
2013-11-11 23:35:00,33.2,29.5,30.29,ESE,114,0.0,1.0,86,0.00,,,0.00,Wunderground v.1.15,2013-11-12 04:35:00,
2013-11-11 23:38:00,33.2,29.8,30.28,ESE,113,1.0,2.0,87,0.00,,,0.00,Wunderground v.1.15,2013-11-12 04:38:00,
2013-11-11 23:39:00,33.2,29.8,30.29,East,101,1.0,2.0,87,0.00,,,0.00,Wunderground v.1.15,2013-11-12 04:39:00,
2013-11-11 23:40:00,33.2,29.8,30.28,East,101,1.0,1.0,87,0.00,,,0.00,Wunderground v.1.15,2013-11-12 04:40:00,
2013-11-11 23:41:00,33.1,29.4,30.28,East,101,1.0,1.0,86,0.00,,,0.00,Wunderground v.1.15,2013-11-12 04:41:00,
2013-11-11 23:42:00,33.1,29.4,30.28,East,101,1.0,1.0,86,0.00,,,0.00,Wunderground v.1.15,2013-11-12 04:42:00,
2013-11-11 23:44:00,33.0,29.3,30.28,East,101,1.0,1.0,86,0.00,,,0.00,Wunderground v.1.15,2013-11-12 04:44:00,
2013-11-11 23:45:00,33.0,29.6,30.28,East,101,1.0,1.0,87,0.00,,,0.00,Wunderground v.1.15,2013-11-12 04:45:00,
2013-11-11 23:48:00,32.8,29.4,30.28,East,101,0.0,1.0,87,0.00,,,0.00,Wunderground v.1.15,2013-11-12 04:48:00,
2013-11-11 23:49:00,32.8,29.4,30.28,East,101,0.0,1.0,87,0.00,,,0.00,Wunderground v.1.15,2013-11-12 04:49:00,
2013-11-11 23:51:00,32.6,29.2,30.28,East,101,0.0,1.0,87,0.00,,,0.00,Wunderground v.1.15,2013-11-12 04:51:00,
2013-11-11 23:54:00,32.6,29.2,30.28,East,101,0.0,1.0,87,0.00,,,0.00,Wunderground v.1.15,2013-11-12 04:54:00,
2013-11-11 23:55:00,32.5,29.1,30.28,East,101,0.0,1.0,87,0.00,,,0.00,Wunderground v.1.15,2013-11-12 04:55:00,
2013-11-11 23:57:00,32.5,29.1,30.28,East,101,0.0,1.0,87,0.00,,,0.00,Wunderground v.1.15,2013-11-12 04:57:00,
2013-11-11 23:59:00,32.5,29.3,30.28,East,101,0.0,1.0,88,0.00,,,0.00,Wunderground v.1.15,2013-11-12 04:59:00,